﻿<?xml version="1.0" encoding="utf-8"?><gpx creator="Garmin Desktop App" version="1.1" xsi:schemaLocation="http://www.topografix.com/GPX/1/1 http://www.topografix.com/GPX/1/1/gpx.xsd http://www.garmin.com/xmlschemas/WaypointExtension/v1 http://www8.garmin.com/xmlschemas/WaypointExtensionv1.xsd http://www.garmin.com/xmlschemas/TrackPointExtension/v1 http://www.garmin.com/xmlschemas/TrackPointExtensionv1.xsd http://www.garmin.com/xmlschemas/GpxExtensions/v3 http://www8.garmin.com/xmlschemas/GpxExtensionsv3.xsd http://www.garmin.com/xmlschemas/ActivityExtension/v1 http://www8.garmin.com/xmlschemas/ActivityExtensionv1.xsd http://www.garmin.com/xmlschemas/AdventuresExtensions/v1 http://www8.garmin.com/xmlschemas/AdventuresExtensionv1.xsd http://www.garmin.com/xmlschemas/PressureExtension/v1 http://www.garmin.com/xmlschemas/PressureExtensionv1.xsd http://www.garmin.com/xmlschemas/TripExtensions/v1 http://www.garmin.com/xmlschemas/TripExtensionsv1.xsd http://www.garmin.com/xmlschemas/TripMetaDataExtensions/v1 http://www.garmin.com/xmlschemas/TripMetaDataExtensionsv1.xsd http://www.garmin.com/xmlschemas/ViaPointTransportationModeExtensions/v1 http://www.garmin.com/xmlschemas/ViaPointTransportationModeExtensionsv1.xsd http://www.garmin.com/xmlschemas/CreationTimeExtension/v1 http://www.garmin.com/xmlschemas/CreationTimeExtensionsv1.xsd http://www.garmin.com/xmlschemas/AccelerationExtension/v1 http://www.garmin.com/xmlschemas/AccelerationExtensionv1.xsd http://www.garmin.com/xmlschemas/PowerExtension/v1 http://www.garmin.com/xmlschemas/PowerExtensionv1.xsd http://www.garmin.com/xmlschemas/VideoExtension/v1 http://www.garmin.com/xmlschemas/VideoExtensionv1.xsd" xmlns="http://www.topografix.com/GPX/1/1" xmlns:xsi="http://www.w3.org/2001/XMLSchema-instance" xmlns:wptx1="http://www.garmin.com/xmlschemas/WaypointExtension/v1" xmlns:gpxtrx="http://www.garmin.com/xmlschemas/GpxExtensions/v3" xmlns:gpxtpx="http://www.garmin.com/xmlschemas/TrackPointExtension/v1" xmlns:gpxx="http://www.garmin.com/xmlschemas/GpxExtensions/v3" xmlns:trp="http://www.garmin.com/xmlschemas/TripExtensions/v1" xmlns:adv="http://www.garmin.com/xmlschemas/AdventuresExtensions/v1" xmlns:prs="http://www.garmin.com/xmlschemas/PressureExtension/v1" xmlns:tmd="http://www.garmin.com/xmlschemas/TripMetaDataExtensions/v1" xmlns:vptm="http://www.garmin.com/xmlschemas/ViaPointTransportationModeExtensions/v1" xmlns:ctx="http://www.garmin.com/xmlschemas/CreationTimeExtension/v1" xmlns:gpxacc="http://www.garmin.com/xmlschemas/AccelerationExtension/v1" xmlns:gpxpx="http://www.garmin.com/xmlschemas/PowerExtension/v1" xmlns:vidx1="http://www.garmin.com/xmlschemas/VideoExtension/v1">

  <metadata>
    <link href="http://www.garmin.com">
      <text>Garmin International</text>
    </link>
    <time>2022-09-25T19:18:35Z</time>
    <bounds maxlat="51.259513506665826" maxlon="4.642791319638491" minlat="51.216164901852608" minlon="4.590717069804668" />
  </metadata>

  <trk>
    <name>ranst schuur inslag 20,1 km</name>
    <extensions>
      <gpxx:TrackExtension>
        <gpxx:DisplayColor>Yellow</gpxx:DisplayColor>
      </gpxx:TrackExtension>
    </extensions>
    <trkseg>
      <trkpt lat="51.229392802342772" lon="4.615953806787729">
        <ele>274.13999999999999</ele>
        <time>2022-09-25T08:44:27Z</time>
      </trkpt>
      <trkpt lat="51.2295036111027" lon="4.616086408495903">
        <ele>274.13999999999999</ele>
        <time>2022-09-25T08:44:38Z</time>
      </trkpt>
      <trkpt lat="51.229546526446939" lon="4.616161594167352">
        <ele>274.13999999999999</ele>
        <time>2022-09-25T08:44:43Z</time>
      </trkpt>
      <trkpt lat="51.229610061272979" lon="4.616252118721604">
        <ele>274.13999999999999</ele>
        <time>2022-09-25T08:44:50Z</time>
      </trkpt>
      <trkpt lat="51.229612743481994" lon="4.616272989660502">
        <ele>274.13999999999999</ele>
        <time>2022-09-25T08:44:51Z</time>
      </trkpt>
      <trkpt lat="51.22961257584393" lon="4.616297213360667">
        <ele>274.13999999999999</ele>
        <time>2022-09-25T08:44:52Z</time>
      </trkpt>
      <trkpt lat="51.229610731825233" lon="4.616323197260499">
        <ele>274.13999999999999</ele>
        <time>2022-09-25T08:44:53Z</time>
      </trkpt>
      <trkpt lat="51.229608887806535" lon="4.616348007693887">
        <ele>274.13999999999999</ele>
        <time>2022-09-25T08:44:54Z</time>
      </trkpt>
      <trkpt lat="51.229536971077323" lon="4.616614552214742">
        <ele>274.13999999999999</ele>
        <time>2022-09-25T08:45:10Z</time>
      </trkpt>
      <trkpt lat="51.229379726573825" lon="4.616956114768982">
        <ele>274.13999999999999</ele>
        <time>2022-09-25T08:45:30Z</time>
      </trkpt>
      <trkpt lat="51.229239329695702" lon="4.617284769192338">
        <ele>274.13999999999999</ele>
        <time>2022-09-25T08:45:46Z</time>
      </trkpt>
      <trkpt lat="51.229123743250966" lon="4.617572436109185">
        <ele>274.13999999999999</ele>
        <time>2022-09-25T08:46:02Z</time>
      </trkpt>
      <trkpt lat="51.229046545922756" lon="4.617748958989978">
        <ele>274.13999999999999</ele>
        <time>2022-09-25T08:46:11Z</time>
      </trkpt>
      <trkpt lat="51.229039588943124" lon="4.617767902091146">
        <ele>274.13999999999999</ele>
        <time>2022-09-25T08:46:12Z</time>
      </trkpt>
      <trkpt lat="51.229027602821589" lon="4.617782905697823">
        <ele>274.13999999999999</ele>
        <time>2022-09-25T08:46:13Z</time>
      </trkpt>
      <trkpt lat="51.229018466547132" lon="4.617800507694483">
        <ele>274.13999999999999</ele>
        <time>2022-09-25T08:46:14Z</time>
      </trkpt>
      <trkpt lat="51.228969432413578" lon="4.617990357801318">
        <ele>274.13999999999999</ele>
        <time>2022-09-25T08:46:22Z</time>
      </trkpt>
      <trkpt lat="51.228965828195214" lon="4.618018437176943">
        <ele>274.13999999999999</ele>
        <time>2022-09-25T08:46:23Z</time>
      </trkpt>
      <trkpt lat="51.228914530947804" lon="4.618420517072082">
        <ele>274.13999999999999</ele>
        <time>2022-09-25T08:46:39Z</time>
      </trkpt>
      <trkpt lat="51.22889282181859" lon="4.618766102939844">
        <ele>274.13999999999999</ele>
        <time>2022-09-25T08:46:54Z</time>
      </trkpt>
      <trkpt lat="51.228856695815921" lon="4.619164578616619">
        <ele>274.13999999999999</ele>
        <time>2022-09-25T08:47:11Z</time>
      </trkpt>
      <trkpt lat="51.228832555934787" lon="4.619498597458005">
        <ele>274.13999999999999</ele>
        <time>2022-09-25T08:47:27Z</time>
      </trkpt>
      <trkpt lat="51.22879751957953" lon="4.61986480280757">
        <ele>274.13999999999999</ele>
        <time>2022-09-25T08:47:47Z</time>
      </trkpt>
      <trkpt lat="51.228724680840969" lon="4.620478777214885">
        <ele>274.13999999999999</ele>
        <time>2022-09-25T08:48:01Z</time>
      </trkpt>
      <trkpt lat="51.228682855144143" lon="4.621000215411186">
        <ele>274.13999999999999</ele>
        <time>2022-09-25T08:48:12Z</time>
      </trkpt>
      <trkpt lat="51.228581350296736" lon="4.62170253507793">
        <ele>274.13999999999999</ele>
        <time>2022-09-25T08:48:25Z</time>
      </trkpt>
      <trkpt lat="51.228476408869028" lon="4.622540138661861">
        <ele>274.13999999999999</ele>
        <time>2022-09-25T08:48:39Z</time>
      </trkpt>
      <trkpt lat="51.22836459428072" lon="4.623222257941961">
        <ele>274.13999999999999</ele>
        <time>2022-09-25T08:48:52Z</time>
      </trkpt>
      <trkpt lat="51.228262921795249" lon="4.62378166615963">
        <ele>274.13999999999999</ele>
        <time>2022-09-25T08:49:04Z</time>
      </trkpt>
      <trkpt lat="51.228194106370211" lon="4.62440712377429">
        <ele>274.13999999999999</ele>
        <time>2022-09-25T08:49:17Z</time>
      </trkpt>
      <trkpt lat="51.228168038651347" lon="4.625042136758566">
        <ele>274.13999999999999</ele>
        <time>2022-09-25T08:49:32Z</time>
      </trkpt>
      <trkpt lat="51.228167535737157" lon="4.625160153955221">
        <ele>274.13999999999999</ele>
        <time>2022-09-25T08:49:35Z</time>
      </trkpt>
      <trkpt lat="51.228174660354853" lon="4.62518647313118">
        <ele>274.13999999999999</ele>
        <time>2022-09-25T08:49:36Z</time>
      </trkpt>
      <trkpt lat="51.22818237170577" lon="4.625214636325836">
        <ele>274.13999999999999</ele>
        <time>2022-09-25T08:49:37Z</time>
      </trkpt>
      <trkpt lat="51.228191759437323" lon="4.625238524749875">
        <ele>274.13999999999999</ele>
        <time>2022-09-25T08:49:38Z</time>
      </trkpt>
      <trkpt lat="51.228199554607272" lon="4.625261072069407">
        <ele>274.13999999999999</ele>
        <time>2022-09-25T08:49:39Z</time>
      </trkpt>
      <trkpt lat="51.228209864348173" lon="4.625280434265733">
        <ele>274.13999999999999</ele>
        <time>2022-09-25T08:49:40Z</time>
      </trkpt>
      <trkpt lat="51.22822143137455" lon="4.625297952443361">
        <ele>274.13999999999999</ele>
        <time>2022-09-25T08:49:41Z</time>
      </trkpt>
      <trkpt lat="51.228234171867371" lon="4.625308513641357">
        <ele>274.13999999999999</ele>
        <time>2022-09-25T08:49:42Z</time>
      </trkpt>
      <trkpt lat="51.228246409446001" lon="4.625324187800288">
        <ele>274.13999999999999</ele>
        <time>2022-09-25T08:49:43Z</time>
      </trkpt>
      <trkpt lat="51.228432571515441" lon="4.625526191666722">
        <ele>274.13999999999999</ele>
        <time>2022-09-25T08:50:01Z</time>
      </trkpt>
      <trkpt lat="51.228603897616267" lon="4.625706654042006">
        <ele>274.13999999999999</ele>
        <time>2022-09-25T08:50:20Z</time>
      </trkpt>
      <trkpt lat="51.228892737999558" lon="4.625953668728471">
        <ele>274.13999999999999</ele>
        <time>2022-09-25T08:50:43Z</time>
      </trkpt>
      <trkpt lat="51.229079067707062" lon="4.626151481643319">
        <ele>274.13999999999999</ele>
        <time>2022-09-25T08:51:01Z</time>
      </trkpt>
      <trkpt lat="51.229286016896367" lon="4.62637142278254">
        <ele>274.13999999999999</ele>
        <time>2022-09-25T08:51:18Z</time>
      </trkpt>
      <trkpt lat="51.22948894277215" lon="4.62652774527669">
        <ele>274.13999999999999</ele>
        <time>2022-09-25T08:51:34Z</time>
      </trkpt>
      <trkpt lat="51.229483326897025" lon="4.62676914408803">
        <ele>274.13999999999999</ele>
        <time>2022-09-25T08:51:54Z</time>
      </trkpt>
      <trkpt lat="51.229320131242275" lon="4.6271160710603">
        <ele>274.13999999999999</ele>
        <time>2022-09-25T08:52:17Z</time>
      </trkpt>
      <trkpt lat="51.229078313335776" lon="4.627438271418214">
        <ele>274.13999999999999</ele>
        <time>2022-09-25T08:52:41Z</time>
      </trkpt>
      <trkpt lat="51.228940431028605" lon="4.627890307456255">
        <ele>274.13999999999999</ele>
        <time>2022-09-25T08:53:05Z</time>
      </trkpt>
      <trkpt lat="51.229068506509066" lon="4.628166742622852">
        <ele>274.13999999999999</ele>
        <time>2022-09-25T08:53:24Z</time>
      </trkpt>
      <trkpt lat="51.229290878400207" lon="4.628485925495625">
        <ele>274.13999999999999</ele>
        <time>2022-09-25T08:53:48Z</time>
      </trkpt>
      <trkpt lat="51.229481147602201" lon="4.628785913810134">
        <ele>274.13999999999999</ele>
        <time>2022-09-25T08:54:03Z</time>
      </trkpt>
      <trkpt lat="51.22975330799818" lon="4.629123201593757">
        <ele>274.13999999999999</ele>
        <time>2022-09-25T08:54:18Z</time>
      </trkpt>
      <trkpt lat="51.23019352555275" lon="4.629445904865861">
        <ele>274.13999999999999</ele>
        <time>2022-09-25T08:54:34Z</time>
      </trkpt>
      <trkpt lat="51.230520168319345" lon="4.629874303936958">
        <ele>274.13999999999999</ele>
        <time>2022-09-25T08:54:49Z</time>
      </trkpt>
      <trkpt lat="51.230711359530687" lon="4.630226092413068">
        <ele>274.13999999999999</ele>
        <time>2022-09-25T08:55:02Z</time>
      </trkpt>
      <trkpt lat="51.230889474973083" lon="4.630440585315228">
        <ele>274.13999999999999</ele>
        <time>2022-09-25T08:55:16Z</time>
      </trkpt>
      <trkpt lat="51.231092819944024" lon="4.630316533148289">
        <ele>274.13999999999999</ele>
        <time>2022-09-25T08:55:34Z</time>
      </trkpt>
      <trkpt lat="51.231115283444524" lon="4.630288872867823">
        <ele>274.13999999999999</ele>
        <time>2022-09-25T08:55:36Z</time>
      </trkpt>
      <trkpt lat="51.231380654498935" lon="4.629944376647472">
        <ele>274.13999999999999</ele>
        <time>2022-09-25T08:56:00Z</time>
      </trkpt>
      <trkpt lat="51.231408063322306" lon="4.629878830164671">
        <ele>274.13999999999999</ele>
        <time>2022-09-25T08:56:03Z</time>
      </trkpt>
      <trkpt lat="51.231446620076895" lon="4.629799788817763">
        <ele>274.13999999999999</ele>
        <time>2022-09-25T08:56:08Z</time>
      </trkpt>
      <trkpt lat="51.231486350297928" lon="4.629674479365349">
        <ele>274.13999999999999</ele>
        <time>2022-09-25T08:56:14Z</time>
      </trkpt>
      <trkpt lat="51.231629345566034" lon="4.629545481875539">
        <ele>274.13999999999999</ele>
        <time>2022-09-25T08:56:28Z</time>
      </trkpt>
      <trkpt lat="51.231649965047836" lon="4.629571214318276">
        <ele>274.13999999999999</ele>
        <time>2022-09-25T08:56:30Z</time>
      </trkpt>
      <trkpt lat="51.23187686316669" lon="4.62982015684247">
        <ele>274.13999999999999</ele>
        <time>2022-09-25T08:56:46Z</time>
      </trkpt>
      <trkpt lat="51.232117507606745" lon="4.630114026367664">
        <ele>274.13999999999999</ele>
        <time>2022-09-25T08:57:05Z</time>
      </trkpt>
      <trkpt lat="51.232290593907237" lon="4.630295997485519">
        <ele>274.13999999999999</ele>
        <time>2022-09-25T08:57:20Z</time>
      </trkpt>
      <trkpt lat="51.232443228363991" lon="4.630502024665475">
        <ele>274.13999999999999</ele>
        <time>2022-09-25T08:57:35Z</time>
      </trkpt>
      <trkpt lat="51.232603657990694" lon="4.63074610568583">
        <ele>274.13999999999999</ele>
        <time>2022-09-25T08:57:51Z</time>
      </trkpt>
      <trkpt lat="51.232678508386016" lon="4.63109252974391">
        <ele>274.13999999999999</ele>
        <time>2022-09-25T08:58:08Z</time>
      </trkpt>
      <trkpt lat="51.232676496729255" lon="4.631603490561247">
        <ele>274.13999999999999</ele>
        <time>2022-09-25T08:58:29Z</time>
      </trkpt>
      <trkpt lat="51.232673646882176" lon="4.63163441978395">
        <ele>274.13999999999999</ele>
        <time>2022-09-25T08:58:30Z</time>
      </trkpt>
      <trkpt lat="51.23264791443944" lon="4.631811697036028">
        <ele>274.13999999999999</ele>
        <time>2022-09-25T08:58:38Z</time>
      </trkpt>
      <trkpt lat="51.232649339362979" lon="4.632154013961554">
        <ele>274.13999999999999</ele>
        <time>2022-09-25T08:58:52Z</time>
      </trkpt>
      <trkpt lat="51.232678759843111" lon="4.632464647293091">
        <ele>274.13999999999999</ele>
        <time>2022-09-25T08:59:08Z</time>
      </trkpt>
      <trkpt lat="51.232708599418402" lon="4.632542096078396">
        <ele>274.13999999999999</ele>
        <time>2022-09-25T08:59:12Z</time>
      </trkpt>
      <trkpt lat="51.232934910804033" lon="4.632882233709097">
        <ele>274.13999999999999</ele>
        <time>2022-09-25T08:59:36Z</time>
      </trkpt>
      <trkpt lat="51.232992578297853" lon="4.633338460698724">
        <ele>274.13999999999999</ele>
        <time>2022-09-25T08:59:59Z</time>
      </trkpt>
      <trkpt lat="51.232924684882164" lon="4.633707767352462">
        <ele>274.13999999999999</ele>
        <time>2022-09-25T09:00:14Z</time>
      </trkpt>
      <trkpt lat="51.232904149219394" lon="4.634087970480323">
        <ele>274.13999999999999</ele>
        <time>2022-09-25T09:00:31Z</time>
      </trkpt>
      <trkpt lat="51.232765428721905" lon="4.63490872643888">
        <ele>274.13999999999999</ele>
        <time>2022-09-25T09:00:57Z</time>
      </trkpt>
      <trkpt lat="51.232959553599358" lon="4.634997239336371">
        <ele>274.13999999999999</ele>
        <time>2022-09-25T09:01:20Z</time>
      </trkpt>
      <trkpt lat="51.233255602419376" lon="4.635103940963745">
        <ele>274.13999999999999</ele>
        <time>2022-09-25T09:01:47Z</time>
      </trkpt>
      <trkpt lat="51.233634883537889" lon="4.635183401405811">
        <ele>274.13999999999999</ele>
        <time>2022-09-25T09:02:13Z</time>
      </trkpt>
      <trkpt lat="51.233805790543556" lon="4.635210894048214">
        <ele>274.13999999999999</ele>
        <time>2022-09-25T09:02:24Z</time>
      </trkpt>
      <trkpt lat="51.23382456600666" lon="4.635223718360066">
        <ele>274.13999999999999</ele>
        <time>2022-09-25T09:02:25Z</time>
      </trkpt>
      <trkpt lat="51.233837306499481" lon="4.635237129405141">
        <ele>274.13999999999999</ele>
        <time>2022-09-25T09:02:26Z</time>
      </trkpt>
      <trkpt lat="51.233853651210666" lon="4.635251462459564">
        <ele>274.13999999999999</ele>
        <time>2022-09-25T09:02:27Z</time>
      </trkpt>
      <trkpt lat="51.233870247378945" lon="4.635267974808812">
        <ele>274.13999999999999</ele>
        <time>2022-09-25T09:02:28Z</time>
      </trkpt>
      <trkpt lat="51.233936380594969" lon="4.635363109409809">
        <ele>274.13999999999999</ele>
        <time>2022-09-25T09:02:35Z</time>
      </trkpt>
      <trkpt lat="51.234065294265747" lon="4.635825287550688">
        <ele>274.13999999999999</ele>
        <time>2022-09-25T09:02:59Z</time>
      </trkpt>
      <trkpt lat="51.234146682545543" lon="4.636366926133633">
        <ele>274.13999999999999</ele>
        <time>2022-09-25T09:03:23Z</time>
      </trkpt>
      <trkpt lat="51.234154477715492" lon="4.636390982195735">
        <ele>274.13999999999999</ele>
        <time>2022-09-25T09:03:24Z</time>
      </trkpt>
      <trkpt lat="51.234250701963902" lon="4.636560380458832">
        <ele>274.13999999999999</ele>
        <time>2022-09-25T09:03:34Z</time>
      </trkpt>
      <trkpt lat="51.234264113008976" lon="4.636562559753656">
        <ele>274.13999999999999</ele>
        <time>2022-09-25T09:03:35Z</time>
      </trkpt>
      <trkpt lat="51.234550271183252" lon="4.63664679788053">
        <ele>274.13999999999999</ele>
        <time>2022-09-25T09:03:56Z</time>
      </trkpt>
      <trkpt lat="51.234710197895765" lon="4.636906553059816">
        <ele>274.13999999999999</ele>
        <time>2022-09-25T09:04:16Z</time>
      </trkpt>
      <trkpt lat="51.234677173197269" lon="4.637523125857115">
        <ele>274.13999999999999</ele>
        <time>2022-09-25T09:04:44Z</time>
      </trkpt>
      <trkpt lat="51.234689075499773" lon="4.637802410870791">
        <ele>274.13999999999999</ele>
        <time>2022-09-25T09:04:55Z</time>
      </trkpt>
      <trkpt lat="51.234714053571224" lon="4.638433232903481">
        <ele>274.13999999999999</ele>
        <time>2022-09-25T09:05:21Z</time>
      </trkpt>
      <trkpt lat="51.234689243137836" lon="4.638636410236359">
        <ele>274.13999999999999</ele>
        <time>2022-09-25T09:05:29Z</time>
      </trkpt>
      <trkpt lat="51.234686560928822" lon="4.639086937531829">
        <ele>274.13999999999999</ele>
        <time>2022-09-25T09:05:46Z</time>
      </trkpt>
      <trkpt lat="51.234625959768891" lon="4.639452723786235">
        <ele>274.13999999999999</ele>
        <time>2022-09-25T09:06:02Z</time>
      </trkpt>
      <trkpt lat="51.23459511436522" lon="4.639605777338147">
        <ele>274.13999999999999</ele>
        <time>2022-09-25T09:06:08Z</time>
      </trkpt>
      <trkpt lat="51.234622271731496" lon="4.640122018754482">
        <ele>274.13999999999999</ele>
        <time>2022-09-25T09:06:24Z</time>
      </trkpt>
      <trkpt lat="51.23464641161263" lon="4.640568355098367">
        <ele>274.13999999999999</ele>
        <time>2022-09-25T09:06:37Z</time>
      </trkpt>
      <trkpt lat="51.234675496816635" lon="4.641361786052585">
        <ele>274.13999999999999</ele>
        <time>2022-09-25T09:06:53Z</time>
      </trkpt>
      <trkpt lat="51.23477197252214" lon="4.642230486497283">
        <ele>274.13999999999999</ele>
        <time>2022-09-25T09:07:09Z</time>
      </trkpt>
      <trkpt lat="51.23493860475719" lon="4.642721163108945">
        <ele>274.13999999999999</ele>
        <time>2022-09-25T09:07:23Z</time>
      </trkpt>
      <trkpt lat="51.23472067527473" lon="4.642791319638491">
        <ele>274.13999999999999</ele>
        <time>2022-09-25T09:07:45Z</time>
      </trkpt>
      <trkpt lat="51.234617242589593" lon="4.642715295776725">
        <ele>274.13999999999999</ele>
        <time>2022-09-25T09:07:54Z</time>
      </trkpt>
      <trkpt lat="51.234273919835687" lon="4.64243944734335">
        <ele>274.13999999999999</ele>
        <time>2022-09-25T09:08:17Z</time>
      </trkpt>
      <trkpt lat="51.234084572643042" lon="4.642258817330003">
        <ele>274.13999999999999</ele>
        <time>2022-09-25T09:08:32Z</time>
      </trkpt>
      <trkpt lat="51.234036795794964" lon="4.642190085723996">
        <ele>274.13999999999999</ele>
        <time>2022-09-25T09:08:36Z</time>
      </trkpt>
      <trkpt lat="51.23401558957994" lon="4.642162676900625">
        <ele>274.13999999999999</ele>
        <time>2022-09-25T09:08:37Z</time>
      </trkpt>
      <trkpt lat="51.233995975926518" lon="4.642138201743364">
        <ele>274.13999999999999</ele>
        <time>2022-09-25T09:08:38Z</time>
      </trkpt>
      <trkpt lat="51.233981475234032" lon="4.642122024670243">
        <ele>274.13999999999999</ele>
        <time>2022-09-25T09:08:39Z</time>
      </trkpt>
      <trkpt lat="51.233965465798974" lon="4.642103249207139">
        <ele>274.13999999999999</ele>
        <time>2022-09-25T09:08:40Z</time>
      </trkpt>
      <trkpt lat="51.233951887115836" lon="4.642087826505303">
        <ele>274.13999999999999</ele>
        <time>2022-09-25T09:08:41Z</time>
      </trkpt>
      <trkpt lat="51.233849627897143" lon="4.642033260315657">
        <ele>274.13999999999999</ele>
        <time>2022-09-25T09:08:48Z</time>
      </trkpt>
      <trkpt lat="51.233817106112838" lon="4.642036948353052">
        <ele>274.13999999999999</ele>
        <time>2022-09-25T09:08:49Z</time>
      </trkpt>
      <trkpt lat="51.233578221872449" lon="4.6422762516886">
        <ele>274.13999999999999</ele>
        <time>2022-09-25T09:09:05Z</time>
      </trkpt>
      <trkpt lat="51.233415193855762" lon="4.642454953864217">
        <ele>274.13999999999999</ele>
        <time>2022-09-25T09:09:20Z</time>
      </trkpt>
      <trkpt lat="51.233394658192992" lon="4.642516896128655">
        <ele>274.13999999999999</ele>
        <time>2022-09-25T09:09:34Z</time>
      </trkpt>
      <trkpt lat="51.233349312096834" lon="4.642590070143342">
        <ele>274.13999999999999</ele>
        <time>2022-09-25T09:09:48Z</time>
      </trkpt>
      <trkpt lat="51.233316119760275" lon="4.642434921115637">
        <ele>274.13999999999999</ele>
        <time>2022-09-25T09:10:07Z</time>
      </trkpt>
      <trkpt lat="51.233124928548932" lon="4.642090927809477">
        <ele>274.13999999999999</ele>
        <time>2022-09-25T09:10:27Z</time>
      </trkpt>
      <trkpt lat="51.233074637129903" lon="4.641979280859232">
        <ele>274.13999999999999</ele>
        <time>2022-09-25T09:10:33Z</time>
      </trkpt>
      <trkpt lat="51.233065333217382" lon="4.641958577558398">
        <ele>274.13999999999999</ele>
        <time>2022-09-25T09:10:34Z</time>
      </trkpt>
      <trkpt lat="51.233057789504528" lon="4.641938209533691">
        <ele>274.13999999999999</ele>
        <time>2022-09-25T09:10:35Z</time>
      </trkpt>
      <trkpt lat="51.233047731220722" lon="4.641916081309319">
        <ele>274.13999999999999</ele>
        <time>2022-09-25T09:10:36Z</time>
      </trkpt>
      <trkpt lat="51.233039265498519" lon="4.641894539818168">
        <ele>274.13999999999999</ele>
        <time>2022-09-25T09:10:37Z</time>
      </trkpt>
      <trkpt lat="51.23291814699769" lon="4.641558341681957">
        <ele>274.13999999999999</ele>
        <time>2022-09-25T09:10:54Z</time>
      </trkpt>
      <trkpt lat="51.23274078592658" lon="4.641066575422883">
        <ele>274.13999999999999</ele>
        <time>2022-09-25T09:11:20Z</time>
      </trkpt>
      <trkpt lat="51.232554707676172" lon="4.640789050608873">
        <ele>274.13999999999999</ele>
        <time>2022-09-25T09:11:38Z</time>
      </trkpt>
      <trkpt lat="51.232510032132268" lon="4.640733143314719">
        <ele>274.13999999999999</ele>
        <time>2022-09-25T09:11:42Z</time>
      </trkpt>
      <trkpt lat="51.232502236962318" lon="4.640724258497357">
        <ele>274.13999999999999</ele>
        <time>2022-09-25T09:11:43Z</time>
      </trkpt>
      <trkpt lat="51.232471475377679" lon="4.640683857724071">
        <ele>274.13999999999999</ele>
        <time>2022-09-25T09:11:47Z</time>
      </trkpt>
      <trkpt lat="51.232414143159986" lon="4.640585957095027">
        <ele>274.13999999999999</ele>
        <time>2022-09-25T09:11:53Z</time>
      </trkpt>
      <trkpt lat="51.231973003596067" lon="4.639867544174194">
        <ele>274.13</ele>
        <time>2022-09-25T09:12:29Z</time>
      </trkpt>
      <trkpt lat="51.231835540384054" lon="4.639590354636312">
        <ele>274.13</ele>
        <time>2022-09-25T09:12:49Z</time>
      </trkpt>
      <trkpt lat="51.231651892885566" lon="4.639242338016629">
        <ele>274.13</ele>
        <time>2022-09-25T09:13:11Z</time>
      </trkpt>
      <trkpt lat="51.231281412765384" lon="4.638955257833004">
        <ele>274.13</ele>
        <time>2022-09-25T09:13:29Z</time>
      </trkpt>
      <trkpt lat="51.231084018945694" lon="4.638842437416315">
        <ele>274.13</ele>
        <time>2022-09-25T09:13:38Z</time>
      </trkpt>
      <trkpt lat="51.231064992025495" lon="4.638835648074746">
        <ele>274.13</ele>
        <time>2022-09-25T09:13:39Z</time>
      </trkpt>
      <trkpt lat="51.2310457136482" lon="4.638820728287101">
        <ele>274.13</ele>
        <time>2022-09-25T09:13:40Z</time>
      </trkpt>
      <trkpt lat="51.231020987033844" lon="4.638797426596284">
        <ele>274.13</ele>
        <time>2022-09-25T09:13:41Z</time>
      </trkpt>
      <trkpt lat="51.230995589867234" lon="4.638771526515484">
        <ele>274.13</ele>
        <time>2022-09-25T09:13:42Z</time>
      </trkpt>
      <trkpt lat="51.230619745329022" lon="4.638573797419667">
        <ele>274.13</ele>
        <time>2022-09-25T09:13:55Z</time>
      </trkpt>
      <trkpt lat="51.230081543326378" lon="4.638237012550235">
        <ele>274.13</ele>
        <time>2022-09-25T09:14:12Z</time>
      </trkpt>
      <trkpt lat="51.229663789272308" lon="4.638131819665432">
        <ele>274.13</ele>
        <time>2022-09-25T09:14:24Z</time>
      </trkpt>
      <trkpt lat="51.229242011904716" lon="4.637965857982636">
        <ele>274.13</ele>
        <time>2022-09-25T09:14:36Z</time>
      </trkpt>
      <trkpt lat="51.229176884517074" lon="4.637924870476127">
        <ele>274.13</ele>
        <time>2022-09-25T09:14:38Z</time>
      </trkpt>
      <trkpt lat="51.229154337197542" lon="4.637904418632388">
        <ele>274.13</ele>
        <time>2022-09-25T09:14:39Z</time>
      </trkpt>
      <trkpt lat="51.22912491671741" lon="4.637883799150586">
        <ele>274.13</ele>
        <time>2022-09-25T09:14:40Z</time>
      </trkpt>
      <trkpt lat="51.229098262265325" lon="4.637868627905846">
        <ele>274.13</ele>
        <time>2022-09-25T09:14:41Z</time>
      </trkpt>
      <trkpt lat="51.229065908119082" lon="4.637858653441072">
        <ele>274.13</ele>
        <time>2022-09-25T09:14:42Z</time>
      </trkpt>
      <trkpt lat="51.229025674983859" lon="4.637843146920204">
        <ele>274.13</ele>
        <time>2022-09-25T09:14:43Z</time>
      </trkpt>
      <trkpt lat="51.228763908147812" lon="4.637620355933905">
        <ele>274.13</ele>
        <time>2022-09-25T09:14:54Z</time>
      </trkpt>
      <trkpt lat="51.228602137416601" lon="4.637456154450774">
        <ele>274.13</ele>
        <time>2022-09-25T09:15:11Z</time>
      </trkpt>
      <trkpt lat="51.228407341986895" lon="4.637314667925239">
        <ele>274.13</ele>
        <time>2022-09-25T09:15:24Z</time>
      </trkpt>
      <trkpt lat="51.228202069178224" lon="4.637114340439439">
        <ele>274.13</ele>
        <time>2022-09-25T09:15:37Z</time>
      </trkpt>
      <trkpt lat="51.227922029793262" lon="4.636785518378019">
        <ele>274.13</ele>
        <time>2022-09-25T09:15:57Z</time>
      </trkpt>
      <trkpt lat="51.227689683437347" lon="4.636490978300571">
        <ele>274.13</ele>
        <time>2022-09-25T09:16:17Z</time>
      </trkpt>
      <trkpt lat="51.227525314316154" lon="4.636172885075212">
        <ele>274.13</ele>
        <time>2022-09-25T09:16:32Z</time>
      </trkpt>
      <trkpt lat="51.227500503882766" lon="4.636003654450178">
        <ele>274.13</ele>
        <time>2022-09-25T09:16:44Z</time>
      </trkpt>
      <trkpt lat="51.22748994268477" lon="4.635934419929981">
        <ele>274.13</ele>
        <time>2022-09-25T09:16:47Z</time>
      </trkpt>
      <trkpt lat="51.227492205798626" lon="4.635908771306276">
        <ele>274.13</ele>
        <time>2022-09-25T09:16:48Z</time>
      </trkpt>
      <trkpt lat="51.227459348738194" lon="4.635410467162728">
        <ele>274.13</ele>
        <time>2022-09-25T09:16:57Z</time>
      </trkpt>
      <trkpt lat="51.227330435067415" lon="4.634529026225209">
        <ele>274.13</ele>
        <time>2022-09-25T09:17:10Z</time>
      </trkpt>
      <trkpt lat="51.227314425632358" lon="4.634197689592838">
        <ele>274.13</ele>
        <time>2022-09-25T09:17:14Z</time>
      </trkpt>
      <trkpt lat="51.227311324328184" lon="4.634120156988502">
        <ele>274.13</ele>
        <time>2022-09-25T09:17:15Z</time>
      </trkpt>
      <trkpt lat="51.227307049557567" lon="4.634050251916051">
        <ele>274.13</ele>
        <time>2022-09-25T09:17:16Z</time>
      </trkpt>
      <trkpt lat="51.227372847497463" lon="4.633037215098739">
        <ele>274.13</ele>
        <time>2022-09-25T09:17:29Z</time>
      </trkpt>
      <trkpt lat="51.227412493899465" lon="4.632381750270724">
        <ele>274.13</ele>
        <time>2022-09-25T09:17:36Z</time>
      </trkpt>
      <trkpt lat="51.227335128933191" lon="4.629047596827149">
        <ele>274.13</ele>
        <time>2022-09-25T09:18:29Z</time>
      </trkpt>
      <trkpt lat="51.227334290742874" lon="4.628614168614149">
        <ele>274.13</ele>
        <time>2022-09-25T09:18:45Z</time>
      </trkpt>
      <trkpt lat="51.227336805313826" lon="4.6284285094589">
        <ele>274.13</ele>
        <time>2022-09-25T09:18:53Z</time>
      </trkpt>
      <trkpt lat="51.227326914668083" lon="4.62827361188829">
        <ele>274.13</ele>
        <time>2022-09-25T09:19:08Z</time>
      </trkpt>
      <trkpt lat="51.22733018361032" lon="4.62791888974607">
        <ele>274.13</ele>
        <time>2022-09-25T09:19:25Z</time>
      </trkpt>
      <trkpt lat="51.227312330156565" lon="4.627606412395835">
        <ele>274.13</ele>
        <time>2022-09-25T09:19:40Z</time>
      </trkpt>
      <trkpt lat="51.227264972403646" lon="4.627578081563115">
        <ele>274.13</ele>
        <time>2022-09-25T09:19:43Z</time>
      </trkpt>
      <trkpt lat="51.227248376235366" lon="4.62758076377213">
        <ele>274.13</ele>
        <time>2022-09-25T09:19:44Z</time>
      </trkpt>
      <trkpt lat="51.227232534438372" lon="4.627581937238574">
        <ele>274.13</ele>
        <time>2022-09-25T09:19:45Z</time>
      </trkpt>
      <trkpt lat="51.227214261889458" lon="4.627581182867289">
        <ele>274.13</ele>
        <time>2022-09-25T09:19:46Z</time>
      </trkpt>
      <trkpt lat="51.227196659892797" lon="4.627580596134067">
        <ele>274.13</ele>
        <time>2022-09-25T09:19:47Z</time>
      </trkpt>
      <trkpt lat="51.227182410657406" lon="4.627588810399175">
        <ele>274.13</ele>
        <time>2022-09-25T09:19:48Z</time>
      </trkpt>
      <trkpt lat="51.227174196392298" lon="4.627605071291328">
        <ele>274.13</ele>
        <time>2022-09-25T09:19:49Z</time>
      </trkpt>
      <trkpt lat="51.227172184735537" lon="4.627621499821544">
        <ele>274.13</ele>
        <time>2022-09-25T09:19:50Z</time>
      </trkpt>
      <trkpt lat="51.22716011479497" lon="4.627662152051926">
        <ele>274.13</ele>
        <time>2022-09-25T09:19:54Z</time>
      </trkpt>
      <trkpt lat="51.226898515596986" lon="4.627999188378453">
        <ele>274.13</ele>
        <time>2022-09-25T09:20:23Z</time>
      </trkpt>
      <trkpt lat="51.226898096501827" lon="4.62802005931735">
        <ele>274.13</ele>
        <time>2022-09-25T09:20:27Z</time>
      </trkpt>
      <trkpt lat="51.226768428459764" lon="4.628432616591454">
        <ele>274.13</ele>
        <time>2022-09-25T09:20:45Z</time>
      </trkpt>
      <trkpt lat="51.226577572524548" lon="4.628863781690598">
        <ele>274.13</ele>
        <time>2022-09-25T09:21:06Z</time>
      </trkpt>
      <trkpt lat="51.226380346342921" lon="4.629284972324967">
        <ele>274.13</ele>
        <time>2022-09-25T09:21:28Z</time>
      </trkpt>
      <trkpt lat="51.226333910599351" lon="4.629325876012445">
        <ele>274.13</ele>
        <time>2022-09-25T09:21:32Z</time>
      </trkpt>
      <trkpt lat="51.226297533139586" lon="4.629300981760025">
        <ele>274.13</ele>
        <time>2022-09-25T09:21:36Z</time>
      </trkpt>
      <trkpt lat="51.226179599761963" lon="4.629103420302272">
        <ele>274.13</ele>
        <time>2022-09-25T09:21:49Z</time>
      </trkpt>
      <trkpt lat="51.225938620045781" lon="4.628728330135346">
        <ele>274.13</ele>
        <time>2022-09-25T09:22:10Z</time>
      </trkpt>
      <trkpt lat="51.22580417431891" lon="4.628498582169414">
        <ele>274.13</ele>
        <time>2022-09-25T09:22:27Z</time>
      </trkpt>
      <trkpt lat="51.225554561242461" lon="4.628187697380781">
        <ele>274.13</ele>
        <time>2022-09-25T09:22:44Z</time>
      </trkpt>
      <trkpt lat="51.225541234016418" lon="4.628172777593136">
        <ele>274.13</ele>
        <time>2022-09-25T09:22:45Z</time>
      </trkpt>
      <trkpt lat="51.22552614659071" lon="4.628153834491968">
        <ele>274.13</ele>
        <time>2022-09-25T09:22:46Z</time>
      </trkpt>
      <trkpt lat="51.225512400269508" lon="4.628134723752737">
        <ele>274.13</ele>
        <time>2022-09-25T09:22:47Z</time>
      </trkpt>
      <trkpt lat="51.225500917062163" lon="4.628120558336377">
        <ele>274.13</ele>
        <time>2022-09-25T09:22:48Z</time>
      </trkpt>
      <trkpt lat="51.225309474393725" lon="4.62787639349699">
        <ele>274.13</ele>
        <time>2022-09-25T09:23:03Z</time>
      </trkpt>
      <trkpt lat="51.225228924304247" lon="4.627762902528048">
        <ele>274.13</ele>
        <time>2022-09-25T09:23:10Z</time>
      </trkpt>
      <trkpt lat="51.22522029094398" lon="4.627745300531387">
        <ele>274.13</ele>
        <time>2022-09-25T09:23:11Z</time>
      </trkpt>
      <trkpt lat="51.225209729745984" lon="4.627727530896664">
        <ele>274.13</ele>
        <time>2022-09-25T09:23:12Z</time>
      </trkpt>
      <trkpt lat="51.225195815786719" lon="4.627711437642574">
        <ele>274.13</ele>
        <time>2022-09-25T09:23:13Z</time>
      </trkpt>
      <trkpt lat="51.225184332579374" lon="4.627694673836231">
        <ele>274.13</ele>
        <time>2022-09-25T09:23:14Z</time>
      </trkpt>
      <trkpt lat="51.224991464987397" lon="4.627406923100352">
        <ele>274.13</ele>
        <time>2022-09-25T09:23:29Z</time>
      </trkpt>
      <trkpt lat="51.224776050075889" lon="4.627123866230249">
        <ele>274.13</ele>
        <time>2022-09-25T09:23:44Z</time>
      </trkpt>
      <trkpt lat="51.224603550508618" lon="4.626890681684017">
        <ele>274.13</ele>
        <time>2022-09-25T09:24:02Z</time>
      </trkpt>
      <trkpt lat="51.224402468651533" lon="4.626645427197218">
        <ele>274.13</ele>
        <time>2022-09-25T09:24:15Z</time>
      </trkpt>
      <trkpt lat="51.224192837253213" lon="4.626389611512423">
        <ele>274.13</ele>
        <time>2022-09-25T09:24:31Z</time>
      </trkpt>
      <trkpt lat="51.224129721522331" lon="4.626284753903747">
        <ele>274.13</ele>
        <time>2022-09-25T09:24:36Z</time>
      </trkpt>
      <trkpt lat="51.223954372107983" lon="4.625997086986899">
        <ele>274.13</ele>
        <time>2022-09-25T09:24:51Z</time>
      </trkpt>
      <trkpt lat="51.223578695207834" lon="4.625427285209298">
        <ele>274.13</ele>
        <time>2022-09-25T09:25:18Z</time>
      </trkpt>
      <trkpt lat="51.223358418792486" lon="4.62509167380631">
        <ele>274.13</ele>
        <time>2022-09-25T09:25:33Z</time>
      </trkpt>
      <trkpt lat="51.223140154033899" lon="4.624809958040714">
        <ele>274.13</ele>
        <time>2022-09-25T09:25:49Z</time>
      </trkpt>
      <trkpt lat="51.222882159054279" lon="4.624489601701498">
        <ele>274.13</ele>
        <time>2022-09-25T09:26:03Z</time>
      </trkpt>
      <trkpt lat="51.222540680319071" lon="4.623986519873142">
        <ele>274.13</ele>
        <time>2022-09-25T09:26:17Z</time>
      </trkpt>
      <trkpt lat="51.222209092229605" lon="4.623384783044457">
        <ele>274.13</ele>
        <time>2022-09-25T09:26:31Z</time>
      </trkpt>
      <trkpt lat="51.22199242003262" lon="4.622373674064875">
        <ele>274.13</ele>
        <time>2022-09-25T09:26:49Z</time>
      </trkpt>
      <trkpt lat="51.221952103078365" lon="4.621949549764395">
        <ele>274.13</ele>
        <time>2022-09-25T09:27:00Z</time>
      </trkpt>
      <trkpt lat="51.221874486654997" lon="4.621395841240883">
        <ele>274.13</ele>
        <time>2022-09-25T09:27:13Z</time>
      </trkpt>
      <trkpt lat="51.221731659024954" lon="4.620751608163118">
        <ele>274.13</ele>
        <time>2022-09-25T09:27:25Z</time>
      </trkpt>
      <trkpt lat="51.221593776717782" lon="4.620272163301706">
        <ele>274.13</ele>
        <time>2022-09-25T09:27:37Z</time>
      </trkpt>
      <trkpt lat="51.221553375944495" lon="4.620141908526421">
        <ele>274.13</ele>
        <time>2022-09-25T09:27:54Z</time>
      </trkpt>
      <trkpt lat="51.221447177231312" lon="4.620029591023922">
        <ele>274.13</ele>
        <time>2022-09-25T09:28:23Z</time>
      </trkpt>
      <trkpt lat="51.22124332934618" lon="4.618900883942843">
        <ele>274.12</ele>
        <time>2022-09-25T09:28:56Z</time>
      </trkpt>
      <trkpt lat="51.221183063462377" lon="4.618552448228002">
        <ele>274.12</ele>
        <time>2022-09-25T09:29:17Z</time>
      </trkpt>
      <trkpt lat="51.221168227493763" lon="4.618522943928838">
        <ele>274.12</ele>
        <time>2022-09-25T09:29:38Z</time>
      </trkpt>
      <trkpt lat="51.221152637153864" lon="4.618524117395282">
        <ele>274.12</ele>
        <time>2022-09-25T09:29:39Z</time>
      </trkpt>
      <trkpt lat="51.22113729827106" lon="4.618530739098787">
        <ele>274.12</ele>
        <time>2022-09-25T09:29:40Z</time>
      </trkpt>
      <trkpt lat="51.221123384311795" lon="4.618538869544864">
        <ele>274.12</ele>
        <time>2022-09-25T09:29:41Z</time>
      </trkpt>
      <trkpt lat="51.220891205593944" lon="4.618644984439015">
        <ele>274.12</ele>
        <time>2022-09-25T09:29:58Z</time>
      </trkpt>
      <trkpt lat="51.220556097105145" lon="4.618741879239678">
        <ele>274.12</ele>
        <time>2022-09-25T09:30:20Z</time>
      </trkpt>
      <trkpt lat="51.220307154580951" lon="4.618815388530493">
        <ele>274.12</ele>
        <time>2022-09-25T09:30:37Z</time>
      </trkpt>
      <trkpt lat="51.220071539282799" lon="4.618827877566218">
        <ele>274.12</ele>
        <time>2022-09-25T09:30:52Z</time>
      </trkpt>
      <trkpt lat="51.219902392476797" lon="4.618870373815298">
        <ele>274.12</ele>
        <time>2022-09-25T09:31:04Z</time>
      </trkpt>
      <trkpt lat="51.219887137413025" lon="4.618870709091425">
        <ele>274.12</ele>
        <time>2022-09-25T09:31:05Z</time>
      </trkpt>
      <trkpt lat="51.219872804358602" lon="4.618870289996266">
        <ele>274.12</ele>
        <time>2022-09-25T09:31:06Z</time>
      </trkpt>
      <trkpt lat="51.219858806580305" lon="4.618869284167886">
        <ele>274.12</ele>
        <time>2022-09-25T09:31:07Z</time>
      </trkpt>
      <trkpt lat="51.219845646992326" lon="4.618869703263044">
        <ele>274.12</ele>
        <time>2022-09-25T09:31:08Z</time>
      </trkpt>
      <trkpt lat="51.219832571223378" lon="4.618870289996266">
        <ele>274.12</ele>
        <time>2022-09-25T09:31:09Z</time>
      </trkpt>
      <trkpt lat="51.219818405807018" lon="4.618872720748186">
        <ele>274.12</ele>
        <time>2022-09-25T09:31:10Z</time>
      </trkpt>
      <trkpt lat="51.219804575666785" lon="4.618875486776233">
        <ele>274.12</ele>
        <time>2022-09-25T09:31:11Z</time>
      </trkpt>
      <trkpt lat="51.219789404422045" lon="4.618880851194263">
        <ele>274.12</ele>
        <time>2022-09-25T09:31:12Z</time>
      </trkpt>
      <trkpt lat="51.219774233177304" lon="4.618886047974229">
        <ele>274.12</ele>
        <time>2022-09-25T09:31:13Z</time>
      </trkpt>
      <trkpt lat="51.219476843252778" lon="4.618939608335495">
        <ele>274.12</ele>
        <time>2022-09-25T09:31:32Z</time>
      </trkpt>
      <trkpt lat="51.219227816909552" lon="4.61897598579526">
        <ele>274.12</ele>
        <time>2022-09-25T09:31:49Z</time>
      </trkpt>
      <trkpt lat="51.218968313187361" lon="4.61900632828474">
        <ele>274.12</ele>
        <time>2022-09-25T09:32:06Z</time>
      </trkpt>
      <trkpt lat="51.218671845272183" lon="4.619051506742835">
        <ele>274.12</ele>
        <time>2022-09-25T09:32:26Z</time>
      </trkpt>
      <trkpt lat="51.218501189723611" lon="4.619064582511783">
        <ele>274.12</ele>
        <time>2022-09-25T09:32:38Z</time>
      </trkpt>
      <trkpt lat="51.218486940488219" lon="4.619071958586574">
        <ele>274.12</ele>
        <time>2022-09-25T09:32:39Z</time>
      </trkpt>
      <trkpt lat="51.218429524451494" lon="4.619074137881398">
        <ele>274.12</ele>
        <time>2022-09-25T09:32:43Z</time>
      </trkpt>
      <trkpt lat="51.218418376520276" lon="4.619057038798928">
        <ele>274.12</ele>
        <time>2022-09-25T09:32:44Z</time>
      </trkpt>
      <trkpt lat="51.218410665169358" lon="4.619035078212619">
        <ele>274.12</ele>
        <time>2022-09-25T09:32:45Z</time>
      </trkpt>
      <trkpt lat="51.218406390398741" lon="4.619013536721468">
        <ele>274.12</ele>
        <time>2022-09-25T09:32:46Z</time>
      </trkpt>
      <trkpt lat="51.218320811167359" lon="4.619070533663034">
        <ele>274.12</ele>
        <time>2022-09-25T09:32:48Z</time>
      </trkpt>
      <trkpt lat="51.216932935640216" lon="4.619293492287397">
        <ele>274.12</ele>
        <time>2022-09-25T09:33:03Z</time>
      </trkpt>
      <trkpt lat="51.216164901852608" lon="4.615136738866568">
        <ele>274.12</ele>
        <time>2022-09-25T09:37:57Z</time>
      </trkpt>
      <trkpt lat="51.217730306088924" lon="4.615229610353708">
        <ele>274.12</ele>
        <time>2022-09-25T09:37:58Z</time>
      </trkpt>
      <trkpt lat="51.217761570587754" lon="4.615171356126666">
        <ele>274.12</ele>
        <time>2022-09-25T09:38:02Z</time>
      </trkpt>
      <trkpt lat="51.21790062636137" lon="4.615098182111979">
        <ele>274.12</ele>
        <time>2022-09-25T09:38:16Z</time>
      </trkpt>
      <trkpt lat="51.217913953587413" lon="4.615100026130676">
        <ele>274.12</ele>
        <time>2022-09-25T09:38:17Z</time>
      </trkpt>
      <trkpt lat="51.217930465936661" lon="4.615101283416152">
        <ele>274.12</ele>
        <time>2022-09-25T09:38:18Z</time>
      </trkpt>
      <trkpt lat="51.218362469226122" lon="4.615136990323663">
        <ele>274.12</ele>
        <time>2022-09-25T09:38:47Z</time>
      </trkpt>
      <trkpt lat="51.218379819765687" lon="4.615145456045866">
        <ele>274.12</ele>
        <time>2022-09-25T09:38:48Z</time>
      </trkpt>
      <trkpt lat="51.218395493924618" lon="4.615152077749372">
        <ele>274.12</ele>
        <time>2022-09-25T09:38:49Z</time>
      </trkpt>
      <trkpt lat="51.218414353206754" lon="4.615157106891275">
        <ele>274.12</ele>
        <time>2022-09-25T09:38:50Z</time>
      </trkpt>
      <trkpt lat="51.218434553593397" lon="4.61516423150897">
        <ele>274.12</ele>
        <time>2022-09-25T09:38:51Z</time>
      </trkpt>
      <trkpt lat="51.218750886619091" lon="4.615205638110638">
        <ele>274.12</ele>
        <time>2022-09-25T09:39:10Z</time>
      </trkpt>
      <trkpt lat="51.218777792528272" lon="4.615209326148033">
        <ele>274.12</ele>
        <time>2022-09-25T09:39:12Z</time>
      </trkpt>
      <trkpt lat="51.218792041763663" lon="4.615215193480253">
        <ele>274.12</ele>
        <time>2022-09-25T09:39:13Z</time>
      </trkpt>
      <trkpt lat="51.218806877732277" lon="4.615217288956046">
        <ele>274.12</ele>
        <time>2022-09-25T09:39:14Z</time>
      </trkpt>
      <trkpt lat="51.219089180231094" lon="4.615237740799785">
        <ele>274.12</ele>
        <time>2022-09-25T09:39:32Z</time>
      </trkpt>
      <trkpt lat="51.219344912096858" lon="4.615288116037846">
        <ele>274.12</ele>
        <time>2022-09-25T09:39:50Z</time>
      </trkpt>
      <trkpt lat="51.219634674489498" lon="4.61528048850596">
        <ele>274.12</ele>
        <time>2022-09-25T09:40:10Z</time>
      </trkpt>
      <trkpt lat="51.219947570934892" lon="4.615151658654213">
        <ele>274.12</ele>
        <time>2022-09-25T09:40:31Z</time>
      </trkpt>
      <trkpt lat="51.220228197053075" lon="4.61503959260881">
        <ele>274.12</ele>
        <time>2022-09-25T09:40:50Z</time>
      </trkpt>
      <trkpt lat="51.2205152772367" lon="4.614924006164074">
        <ele>274.12</ele>
        <time>2022-09-25T09:41:10Z</time>
      </trkpt>
      <trkpt lat="51.220800010487437" lon="4.614813532680273">
        <ele>274.12</ele>
        <time>2022-09-25T09:41:30Z</time>
      </trkpt>
      <trkpt lat="51.221112068742514" lon="4.614712446928024">
        <ele>274.12</ele>
        <time>2022-09-25T09:41:52Z</time>
      </trkpt>
      <trkpt lat="51.221284065395594" lon="4.614664418622851">
        <ele>274.12</ele>
        <time>2022-09-25T09:42:08Z</time>
      </trkpt>
      <trkpt lat="51.221526972949505" lon="4.614573894068599">
        <ele>274.12</ele>
        <time>2022-09-25T09:42:29Z</time>
      </trkpt>
      <trkpt lat="51.221705339848995" lon="4.614528296515346">
        <ele>274.12</ele>
        <time>2022-09-25T09:42:42Z</time>
      </trkpt>
      <trkpt lat="51.222783336415887" lon="4.614449087530375">
        <ele>274.12</ele>
        <time>2022-09-25T09:43:57Z</time>
      </trkpt>
      <trkpt lat="51.222855672240257" lon="4.614900872111321">
        <ele>274.12</ele>
        <time>2022-09-25T09:44:13Z</time>
      </trkpt>
      <trkpt lat="51.222931109368801" lon="4.615244278684259">
        <ele>274.12</ele>
        <time>2022-09-25T09:44:32Z</time>
      </trkpt>
      <trkpt lat="51.223267558962107" lon="4.61655336432159">
        <ele>274.12</ele>
        <time>2022-09-25T09:45:47Z</time>
      </trkpt>
      <trkpt lat="51.223668465390801" lon="4.616901632398367">
        <ele>274.12</ele>
        <time>2022-09-25T09:46:19Z</time>
      </trkpt>
      <trkpt lat="51.223913300782442" lon="4.616842204704881">
        <ele>274.12</ele>
        <time>2022-09-25T09:46:38Z</time>
      </trkpt>
      <trkpt lat="51.224167356267571" lon="4.61673709563911">
        <ele>274.12</ele>
        <time>2022-09-25T09:46:55Z</time>
      </trkpt>
      <trkpt lat="51.224217228591442" lon="4.616677165031433">
        <ele>274.12</ele>
        <time>2022-09-25T09:47:01Z</time>
      </trkpt>
      <trkpt lat="51.224236926063895" lon="4.616663418710232">
        <ele>274.12</ele>
        <time>2022-09-25T09:47:02Z</time>
      </trkpt>
      <trkpt lat="51.224423255771399" lon="4.61655386723578">
        <ele>274.12</ele>
        <time>2022-09-25T09:47:16Z</time>
      </trkpt>
      <trkpt lat="51.224665157496929" lon="4.616368878632784">
        <ele>274.12</ele>
        <time>2022-09-25T09:47:34Z</time>
      </trkpt>
      <trkpt lat="51.224834639579058" lon="4.616292854771018">
        <ele>274.12</ele>
        <time>2022-09-25T09:47:51Z</time>
      </trkpt>
      <trkpt lat="51.225102609023452" lon="4.616216327995062">
        <ele>274.12</ele>
        <time>2022-09-25T09:48:07Z</time>
      </trkpt>
      <trkpt lat="51.225305367261171" lon="4.616156397387385">
        <ele>274.12</ele>
        <time>2022-09-25T09:48:23Z</time>
      </trkpt>
      <trkpt lat="51.225403184071183" lon="4.616162432357669">
        <ele>274.12</ele>
        <time>2022-09-25T09:48:29Z</time>
      </trkpt>
      <trkpt lat="51.225422210991383" lon="4.616160839796066">
        <ele>274.12</ele>
        <time>2022-09-25T09:48:30Z</time>
      </trkpt>
      <trkpt lat="51.225450122728944" lon="4.616146087646484">
        <ele>274.12</ele>
        <time>2022-09-25T09:48:32Z</time>
      </trkpt>
      <trkpt lat="51.225623628124595" lon="4.616104513406754">
        <ele>274.12</ele>
        <time>2022-09-25T09:48:46Z</time>
      </trkpt>
      <trkpt lat="51.226063678041101" lon="4.61599487811327">
        <ele>274.12</ele>
        <time>2022-09-25T09:49:17Z</time>
      </trkpt>
      <trkpt lat="51.22627716511488" lon="4.615940731018782">
        <ele>274.12</ele>
        <time>2022-09-25T09:49:31Z</time>
      </trkpt>
      <trkpt lat="51.226498866453767" lon="4.615833107382059">
        <ele>274.12</ele>
        <time>2022-09-25T09:49:48Z</time>
      </trkpt>
      <trkpt lat="51.226655440405011" lon="4.615632360801101">
        <ele>274.12</ele>
        <time>2022-09-25T09:50:02Z</time>
      </trkpt>
      <trkpt lat="51.226728949695826" lon="4.615211253985763">
        <ele>274.12</ele>
        <time>2022-09-25T09:50:19Z</time>
      </trkpt>
      <trkpt lat="51.226725345477462" lon="4.615133050829172">
        <ele>274.12</ele>
        <time>2022-09-25T09:50:22Z</time>
      </trkpt>
      <trkpt lat="51.226727608591318" lon="4.615112179890275">
        <ele>274.12</ele>
        <time>2022-09-25T09:50:23Z</time>
      </trkpt>
      <trkpt lat="51.226727440953255" lon="4.615089632570744">
        <ele>274.12</ele>
        <time>2022-09-25T09:50:24Z</time>
      </trkpt>
      <trkpt lat="51.226721322163939" lon="4.614872541278601">
        <ele>274.12</ele>
        <time>2022-09-25T09:50:33Z</time>
      </trkpt>
      <trkpt lat="51.226724926382303" lon="4.61484513245523">
        <ele>274.12</ele>
        <time>2022-09-25T09:50:34Z</time>
      </trkpt>
      <trkpt lat="51.226709755137563" lon="4.61461404338479">
        <ele>274.12</ele>
        <time>2022-09-25T09:50:43Z</time>
      </trkpt>
      <trkpt lat="51.226702546700835" lon="4.614515975117683">
        <ele>274.12</ele>
        <time>2022-09-25T09:50:47Z</time>
      </trkpt>
      <trkpt lat="51.226704642176628" lon="4.614408686757088">
        <ele>274.12</ele>
        <time>2022-09-25T09:50:51Z</time>
      </trkpt>
      <trkpt lat="51.226715287193656" lon="4.614143399521709">
        <ele>274.12</ele>
        <time>2022-09-25T09:51:02Z</time>
      </trkpt>
      <trkpt lat="51.226726602762938" lon="4.614038122817874">
        <ele>274.12</ele>
        <time>2022-09-25T09:51:07Z</time>
      </trkpt>
      <trkpt lat="51.226727440953255" lon="4.614017587155104">
        <ele>274.12</ele>
        <time>2022-09-25T09:51:08Z</time>
      </trkpt>
      <trkpt lat="51.226741019636393" lon="4.613508470356464">
        <ele>274.12</ele>
        <time>2022-09-25T09:51:30Z</time>
      </trkpt>
      <trkpt lat="51.226676311343908" lon="4.613057607784867">
        <ele>274.12</ele>
        <time>2022-09-25T09:51:46Z</time>
      </trkpt>
      <trkpt lat="51.226685782894492" lon="4.612888712435961">
        <ele>274.12</ele>
        <time>2022-09-25T09:51:59Z</time>
      </trkpt>
      <trkpt lat="51.22669693082571" lon="4.612885024398565">
        <ele>274.12</ele>
        <time>2022-09-25T09:52:00Z</time>
      </trkpt>
      <trkpt lat="51.226711263880134" lon="4.612880498170853">
        <ele>274.12</ele>
        <time>2022-09-25T09:52:01Z</time>
      </trkpt>
      <trkpt lat="51.226957188919187" lon="4.61279584094882">
        <ele>274.12</ele>
        <time>2022-09-25T09:52:16Z</time>
      </trkpt>
      <trkpt lat="51.227107560262084" lon="4.612724762409926">
        <ele>274.12</ele>
        <time>2022-09-25T09:52:25Z</time>
      </trkpt>
      <trkpt lat="51.227126168087125" lon="4.612718308344483">
        <ele>274.12</ele>
        <time>2022-09-25T09:52:26Z</time>
      </trkpt>
      <trkpt lat="51.227145111188293" lon="4.612710177898407">
        <ele>274.12</ele>
        <time>2022-09-25T09:52:27Z</time>
      </trkpt>
      <trkpt lat="51.227485248818994" lon="4.612631052732468">
        <ele>274.12</ele>
        <time>2022-09-25T09:52:39Z</time>
      </trkpt>
      <trkpt lat="51.227977769449353" lon="4.612526027485728">
        <ele>274.12</ele>
        <time>2022-09-25T09:52:52Z</time>
      </trkpt>
      <trkpt lat="51.228352775797248" lon="4.612394096329808">
        <ele>274.12</ele>
        <time>2022-09-25T09:53:05Z</time>
      </trkpt>
      <trkpt lat="51.22858059592545" lon="4.612253196537495">
        <ele>274.12</ele>
        <time>2022-09-25T09:53:17Z</time>
      </trkpt>
      <trkpt lat="51.228970102965832" lon="4.612162252888084">
        <ele>274.12</ele>
        <time>2022-09-25T09:53:30Z</time>
      </trkpt>
      <trkpt lat="51.229467820376158" lon="4.61205018684268">
        <ele>274.12</ele>
        <time>2022-09-25T09:53:56Z</time>
      </trkpt>
      <trkpt lat="51.2298593390733" lon="4.611950190737844">
        <ele>274.12</ele>
        <time>2022-09-25T09:54:16Z</time>
      </trkpt>
      <trkpt lat="51.230181790888309" lon="4.611936863511801">
        <ele>274.12</ele>
        <time>2022-09-25T09:54:31Z</time>
      </trkpt>
      <trkpt lat="51.230374071747065" lon="4.611892439424992">
        <ele>274.12</ele>
        <time>2022-09-25T09:54:44Z</time>
      </trkpt>
      <trkpt lat="51.230673976242542" lon="4.611797723919153">
        <ele>274.12</ele>
        <time>2022-09-25T09:55:02Z</time>
      </trkpt>
      <trkpt lat="51.230917554348707" lon="4.611658919602633">
        <ele>274.12</ele>
        <time>2022-09-25T09:55:19Z</time>
      </trkpt>
      <trkpt lat="51.231187703087926" lon="4.611597564071417">
        <ele>274.12</ele>
        <time>2022-09-25T09:55:37Z</time>
      </trkpt>
      <trkpt lat="51.231388030573726" lon="4.611582392826676">
        <ele>274.12</ele>
        <time>2022-09-25T09:55:52Z</time>
      </trkpt>
      <trkpt lat="51.231527421623468" lon="4.611503267660737">
        <ele>274.12</ele>
        <time>2022-09-25T09:56:05Z</time>
      </trkpt>
      <trkpt lat="51.23186026699841" lon="4.611396649852395">
        <ele>274.12</ele>
        <time>2022-09-25T09:56:31Z</time>
      </trkpt>
      <trkpt lat="51.232238123193383" lon="4.611084256321192">
        <ele>274.12</ele>
        <time>2022-09-25T09:56:59Z</time>
      </trkpt>
      <trkpt lat="51.23235085979104" lon="4.610928688198328">
        <ele>274.12</ele>
        <time>2022-09-25T09:57:06Z</time>
      </trkpt>
      <trkpt lat="51.232365360483527" lon="4.610897842794657">
        <ele>274.12</ele>
        <time>2022-09-25T09:57:07Z</time>
      </trkpt>
      <trkpt lat="51.232383716851473" lon="4.610862303525209">
        <ele>274.12</ele>
        <time>2022-09-25T09:57:08Z</time>
      </trkpt>
      <trkpt lat="51.232670713216066" lon="4.610386714339256">
        <ele>274.12</ele>
        <time>2022-09-25T09:57:17Z</time>
      </trkpt>
      <trkpt lat="51.23307254165411" lon="4.609830155968666">
        <ele>274.12</ele>
        <time>2022-09-25T09:57:29Z</time>
      </trkpt>
      <trkpt lat="51.233526170253754" lon="4.609355824068189">
        <ele>274.12</ele>
        <time>2022-09-25T09:57:40Z</time>
      </trkpt>
      <trkpt lat="51.233957754448056" lon="4.608975956216455">
        <ele>274.12</ele>
        <time>2022-09-25T09:57:50Z</time>
      </trkpt>
      <trkpt lat="51.234313901513815" lon="4.608470275998116">
        <ele>274.12</ele>
        <time>2022-09-25T09:58:00Z</time>
      </trkpt>
      <trkpt lat="51.234702486544847" lon="4.608116811141372">
        <ele>274.12</ele>
        <time>2022-09-25T09:58:12Z</time>
      </trkpt>
      <trkpt lat="51.235320651903749" lon="4.607879100367427">
        <ele>274.12</ele>
        <time>2022-09-25T09:58:23Z</time>
      </trkpt>
      <trkpt lat="51.23578148894012" lon="4.607772650197148">
        <ele>274.12</ele>
        <time>2022-09-25T09:58:34Z</time>
      </trkpt>
      <trkpt lat="51.236310973763466" lon="4.607673995196819">
        <ele>274.12</ele>
        <time>2022-09-25T09:58:48Z</time>
      </trkpt>
      <trkpt lat="51.236739037558436" lon="4.607552541419864">
        <ele>274.12</ele>
        <time>2022-09-25T09:59:01Z</time>
      </trkpt>
      <trkpt lat="51.237146481871605" lon="4.607395129278302">
        <ele>274.12</ele>
        <time>2022-09-25T09:59:14Z</time>
      </trkpt>
      <trkpt lat="51.237549567595124" lon="4.60731340572238">
        <ele>274.12</ele>
        <time>2022-09-25T09:59:26Z</time>
      </trkpt>
      <trkpt lat="51.23797444626689" lon="4.607191113755107">
        <ele>274.12</ele>
        <time>2022-09-25T09:59:37Z</time>
      </trkpt>
      <trkpt lat="51.238352470099926" lon="4.607098745182157">
        <ele>274.12</ele>
        <time>2022-09-25T09:59:50Z</time>
      </trkpt>
      <trkpt lat="51.238678693771362" lon="4.607036802917719">
        <ele>274.12</ele>
        <time>2022-09-25T10:00:09Z</time>
      </trkpt>
      <trkpt lat="51.239037942141294" lon="4.60689221508801">
        <ele>274.12</ele>
        <time>2022-09-25T10:00:34Z</time>
      </trkpt>
      <trkpt lat="51.239149253815413" lon="4.606755841523409">
        <ele>274.12</ele>
        <time>2022-09-25T10:00:42Z</time>
      </trkpt>
      <trkpt lat="51.239163251593709" lon="4.60673438385129">
        <ele>274.12</ele>
        <time>2022-09-25T10:00:43Z</time>
      </trkpt>
      <trkpt lat="51.239172304049134" lon="4.606711836531758">
        <ele>274.12</ele>
        <time>2022-09-25T10:00:44Z</time>
      </trkpt>
      <trkpt lat="51.239521410316229" lon="4.606317384168506">
        <ele>274.12</ele>
        <time>2022-09-25T10:01:10Z</time>
      </trkpt>
      <trkpt lat="51.23976674862206" lon="4.60597850382328">
        <ele>274.12</ele>
        <time>2022-09-25T10:01:32Z</time>
      </trkpt>
      <trkpt lat="51.240082662552595" lon="4.605519594624639">
        <ele>274.12</ele>
        <time>2022-09-25T10:01:58Z</time>
      </trkpt>
      <trkpt lat="51.240329425781965" lon="4.605221198871732">
        <ele>274.12</ele>
        <time>2022-09-25T10:02:17Z</time>
      </trkpt>
      <trkpt lat="51.24048700556159" lon="4.605007711797953">
        <ele>274.12</ele>
        <time>2022-09-25T10:02:31Z</time>
      </trkpt>
      <trkpt lat="51.240714238956571" lon="4.604651480913162">
        <ele>274.12</ele>
        <time>2022-09-25T10:02:51Z</time>
      </trkpt>
      <trkpt lat="51.241025794297457" lon="4.604239426553249">
        <ele>274.12</ele>
        <time>2022-09-25T10:03:17Z</time>
      </trkpt>
      <trkpt lat="51.241295775398612" lon="4.603890152648091">
        <ele>274.12</ele>
        <time>2022-09-25T10:03:38Z</time>
      </trkpt>
      <trkpt lat="51.241363082081079" lon="4.603797113522887">
        <ele>274.12</ele>
        <time>2022-09-25T10:03:44Z</time>
      </trkpt>
      <trkpt lat="51.241530636325479" lon="4.603576334193349">
        <ele>274.12</ele>
        <time>2022-09-25T10:03:58Z</time>
      </trkpt>
      <trkpt lat="51.241743871942163" lon="4.603338204324246">
        <ele>274.12</ele>
        <time>2022-09-25T10:04:16Z</time>
      </trkpt>
      <trkpt lat="51.242051823064685" lon="4.602965461090207">
        <ele>274.12</ele>
        <time>2022-09-25T10:04:42Z</time>
      </trkpt>
      <trkpt lat="51.242379555478692" lon="4.602557178586721">
        <ele>274.12</ele>
        <time>2022-09-25T10:05:07Z</time>
      </trkpt>
      <trkpt lat="51.242685243487358" lon="4.60215350612998">
        <ele>274.12</ele>
        <time>2022-09-25T10:05:33Z</time>
      </trkpt>
      <trkpt lat="51.242918344214559" lon="4.601775482296944">
        <ele>274.12</ele>
        <time>2022-09-25T10:05:56Z</time>
      </trkpt>
      <trkpt lat="51.243202826008201" lon="4.601433584466577">
        <ele>274.12</ele>
        <time>2022-09-25T10:06:18Z</time>
      </trkpt>
      <trkpt lat="51.243469286710024" lon="4.601322524249554">
        <ele>274.12</ele>
        <time>2022-09-25T10:06:35Z</time>
      </trkpt>
      <trkpt lat="51.243687300011516" lon="4.601207859814167">
        <ele>274.12</ele>
        <time>2022-09-25T10:06:50Z</time>
      </trkpt>
      <trkpt lat="51.243708925321698" lon="4.601186569780111">
        <ele>274.12</ele>
        <time>2022-09-25T10:06:52Z</time>
      </trkpt>
      <trkpt lat="51.243720827624202" lon="4.601176427677274">
        <ele>274.12</ele>
        <time>2022-09-25T10:06:53Z</time>
      </trkpt>
      <trkpt lat="51.243914198130369" lon="4.601065702736378">
        <ele>274.12</ele>
        <time>2022-09-25T10:07:07Z</time>
      </trkpt>
      <trkpt lat="51.244040848687291" lon="4.600971573963761">
        <ele>274.13</ele>
        <time>2022-09-25T10:07:18Z</time>
      </trkpt>
      <trkpt lat="51.244058618322015" lon="4.60095975548029">
        <ele>274.13</ele>
        <time>2022-09-25T10:07:19Z</time>
      </trkpt>
      <trkpt lat="51.244308818131685" lon="4.600657001137734">
        <ele>274.13</ele>
        <time>2022-09-25T10:07:39Z</time>
      </trkpt>
      <trkpt lat="51.244452316313982" lon="4.600532613694668">
        <ele>274.13</ele>
        <time>2022-09-25T10:07:51Z</time>
      </trkpt>
      <trkpt lat="51.244705365970731" lon="4.600426247343421">
        <ele>274.13</ele>
        <time>2022-09-25T10:08:04Z</time>
      </trkpt>
      <trkpt lat="51.245005102828145" lon="4.600330106914043">
        <ele>274.13</ele>
        <time>2022-09-25T10:08:16Z</time>
      </trkpt>
      <trkpt lat="51.245524613186717" lon="4.600177388638258">
        <ele>274.13</ele>
        <time>2022-09-25T10:08:28Z</time>
      </trkpt>
      <trkpt lat="51.24602023512125" lon="4.600062808021903">
        <ele>274.13</ele>
        <time>2022-09-25T10:08:40Z</time>
      </trkpt>
      <trkpt lat="51.246385518461466" lon="4.600013019517064">
        <ele>274.13</ele>
        <time>2022-09-25T10:08:53Z</time>
      </trkpt>
      <trkpt lat="51.246684584766626" lon="4.600018383935094">
        <ele>274.13</ele>
        <time>2022-09-25T10:09:07Z</time>
      </trkpt>
      <trkpt lat="51.24679665081203" lon="4.60002550855279">
        <ele>274.13</ele>
        <time>2022-09-25T10:09:21Z</time>
      </trkpt>
      <trkpt lat="51.246961187571287" lon="4.599852086976171">
        <ele>274.13</ele>
        <time>2022-09-25T10:09:35Z</time>
      </trkpt>
      <trkpt lat="51.247139470651746" lon="4.599753683432937">
        <ele>274.13</ele>
        <time>2022-09-25T10:09:43Z</time>
      </trkpt>
      <trkpt lat="51.247555632144213" lon="4.599474063143134">
        <ele>274.13</ele>
        <time>2022-09-25T10:09:58Z</time>
      </trkpt>
      <trkpt lat="51.247817818075418" lon="4.599226377904415">
        <ele>274.13</ele>
        <time>2022-09-25T10:10:14Z</time>
      </trkpt>
      <trkpt lat="51.248050248250365" lon="4.599000988528132">
        <ele>274.13</ele>
        <time>2022-09-25T10:10:28Z</time>
      </trkpt>
      <trkpt lat="51.248286450281739" lon="4.598805187270045">
        <ele>274.13</ele>
        <time>2022-09-25T10:10:44Z</time>
      </trkpt>
      <trkpt lat="51.248476719483733" lon="4.598582312464714">
        <ele>274.13</ele>
        <time>2022-09-25T10:11:00Z</time>
      </trkpt>
      <trkpt lat="51.248719710856676" lon="4.598333034664393">
        <ele>274.13</ele>
        <time>2022-09-25T10:11:19Z</time>
      </trkpt>
      <trkpt lat="51.248911907896399" lon="4.598148381337524">
        <ele>274.13</ele>
        <time>2022-09-25T10:11:32Z</time>
      </trkpt>
      <trkpt lat="51.249117013067007" lon="4.597934307530522">
        <ele>274.13</ele>
        <time>2022-09-25T10:11:49Z</time>
      </trkpt>
      <trkpt lat="51.249281466007233" lon="4.597759880125523">
        <ele>274.13</ele>
        <time>2022-09-25T10:12:03Z</time>
      </trkpt>
      <trkpt lat="51.249445080757141" lon="4.597586039453745">
        <ele>274.13</ele>
        <time>2022-09-25T10:12:18Z</time>
      </trkpt>
      <trkpt lat="51.249627890065312" lon="4.597425777465105">
        <ele>274.13</ele>
        <time>2022-09-25T10:12:36Z</time>
      </trkpt>
      <trkpt lat="51.249837772920728" lon="4.59722125902772">
        <ele>274.13</ele>
        <time>2022-09-25T10:12:52Z</time>
      </trkpt>
      <trkpt lat="51.250077160075307" lon="4.596985392272472">
        <ele>274.13</ele>
        <time>2022-09-25T10:13:09Z</time>
      </trkpt>
      <trkpt lat="51.250246809795499" lon="4.596805181354284">
        <ele>274.13</ele>
        <time>2022-09-25T10:13:23Z</time>
      </trkpt>
      <trkpt lat="51.250394834205508" lon="4.596633436158299">
        <ele>274.13</ele>
        <time>2022-09-25T10:13:37Z</time>
      </trkpt>
      <trkpt lat="51.250649308785796" lon="4.59639840759337">
        <ele>274.13</ele>
        <time>2022-09-25T10:13:56Z</time>
      </trkpt>
      <trkpt lat="51.250910488888621" lon="4.596162959933281">
        <ele>274.13</ele>
        <time>2022-09-25T10:14:14Z</time>
      </trkpt>
      <trkpt lat="51.251108050346375" lon="4.595942432060838">
        <ele>274.13</ele>
        <time>2022-09-25T10:14:28Z</time>
      </trkpt>
      <trkpt lat="51.251369565725327" lon="4.59573682397604">
        <ele>274.13</ele>
        <time>2022-09-25T10:14:49Z</time>
      </trkpt>
      <trkpt lat="51.25170785933733" lon="4.595636576414108">
        <ele>274.13</ele>
        <time>2022-09-25T10:15:06Z</time>
      </trkpt>
      <trkpt lat="51.252006171271205" lon="4.595582261681557">
        <ele>274.13</ele>
        <time>2022-09-25T10:15:22Z</time>
      </trkpt>
      <trkpt lat="51.252256287261844" lon="4.595523169264197">
        <ele>274.13</ele>
        <time>2022-09-25T10:15:37Z</time>
      </trkpt>
      <trkpt lat="51.252393163740635" lon="4.595507243648171">
        <ele>274.13</ele>
        <time>2022-09-25T10:15:53Z</time>
      </trkpt>
      <trkpt lat="51.252552671357989" lon="4.595479667186737">
        <ele>274.13</ele>
        <time>2022-09-25T10:16:06Z</time>
      </trkpt>
      <trkpt lat="51.252596005797386" lon="4.595490312203765">
        <ele>274.13</ele>
        <time>2022-09-25T10:16:16Z</time>
      </trkpt>
      <trkpt lat="51.25276230275631" lon="4.595434069633484">
        <ele>274.13</ele>
        <time>2022-09-25T10:16:31Z</time>
      </trkpt>
      <trkpt lat="51.253035636618733" lon="4.595354357734323">
        <ele>274.13</ele>
        <time>2022-09-25T10:16:47Z</time>
      </trkpt>
      <trkpt lat="51.253250632435083" lon="4.595375563949347">
        <ele>274.13</ele>
        <time>2022-09-25T10:17:04Z</time>
      </trkpt>
      <trkpt lat="51.253547184169292" lon="4.595353603363037">
        <ele>274.13</ele>
        <time>2022-09-25T10:17:22Z</time>
      </trkpt>
      <trkpt lat="51.253806352615356" lon="4.595331726595759">
        <ele>274.13</ele>
        <time>2022-09-25T10:17:38Z</time>
      </trkpt>
      <trkpt lat="51.254008105024695" lon="4.595294846221805">
        <ele>274.13</ele>
        <time>2022-09-25T10:17:52Z</time>
      </trkpt>
      <trkpt lat="51.25426878221333" lon="4.595310017466545">
        <ele>274.13</ele>
        <time>2022-09-25T10:18:09Z</time>
      </trkpt>
      <trkpt lat="51.254503643140197" lon="4.595271963626146">
        <ele>274.13</ele>
        <time>2022-09-25T10:18:23Z</time>
      </trkpt>
      <trkpt lat="51.254519736394286" lon="4.595264839008451">
        <ele>274.13</ele>
        <time>2022-09-25T10:18:24Z</time>
      </trkpt>
      <trkpt lat="51.254538176581264" lon="4.595256708562374">
        <ele>274.13</ele>
        <time>2022-09-25T10:18:25Z</time>
      </trkpt>
      <trkpt lat="51.25482140108943" lon="4.595212871208787">
        <ele>274.13</ele>
        <time>2022-09-25T10:18:43Z</time>
      </trkpt>
      <trkpt lat="51.255073444917798" lon="4.595208093523979">
        <ele>274.13</ele>
        <time>2022-09-25T10:19:02Z</time>
      </trkpt>
      <trkpt lat="51.255420707166195" lon="4.595120334997773">
        <ele>274.13</ele>
        <time>2022-09-25T10:19:26Z</time>
      </trkpt>
      <trkpt lat="51.25578842125833" lon="4.595059650018811">
        <ele>274.13</ele>
        <time>2022-09-25T10:19:49Z</time>
      </trkpt>
      <trkpt lat="51.256189998239279" lon="4.59484021179378">
        <ele>274.13</ele>
        <time>2022-09-25T10:20:15Z</time>
      </trkpt>
      <trkpt lat="51.256399294361472" lon="4.594648936763406">
        <ele>274.13</ele>
        <time>2022-09-25T10:20:30Z</time>
      </trkpt>
      <trkpt lat="51.256409687921405" lon="4.594645332545042">
        <ele>274.13</ele>
        <time>2022-09-25T10:20:31Z</time>
      </trkpt>
      <trkpt lat="51.256432989612222" lon="4.594634100794792">
        <ele>274.13</ele>
        <time>2022-09-25T10:20:33Z</time>
      </trkpt>
      <trkpt lat="51.256610602140427" lon="4.594469731673598">
        <ele>274.13</ele>
        <time>2022-09-25T10:20:46Z</time>
      </trkpt>
      <trkpt lat="51.256786705926061" lon="4.594284240156412">
        <ele>274.13</ele>
        <time>2022-09-25T10:21:00Z</time>
      </trkpt>
      <trkpt lat="51.257062889635563" lon="4.59401928819716">
        <ele>274.13</ele>
        <time>2022-09-25T10:21:21Z</time>
      </trkpt>
      <trkpt lat="51.257401183247566" lon="4.593690382316709">
        <ele>274.13</ele>
        <time>2022-09-25T10:21:47Z</time>
      </trkpt>
      <trkpt lat="51.257770573720336" lon="4.593382431194186">
        <ele>274.13</ele>
        <time>2022-09-25T10:22:08Z</time>
      </trkpt>
      <trkpt lat="51.258019180968404" lon="4.593123430386186">
        <ele>274.13</ele>
        <time>2022-09-25T10:22:27Z</time>
      </trkpt>
      <trkpt lat="51.25828287564218" lon="4.592836769297719">
        <ele>274.13</ele>
        <time>2022-09-25T10:22:47Z</time>
      </trkpt>
      <trkpt lat="51.258505834266543" lon="4.592642225325108">
        <ele>274.13</ele>
        <time>2022-09-25T10:23:04Z</time>
      </trkpt>
      <trkpt lat="51.258633155375719" lon="4.592522364109755">
        <ele>274.13</ele>
        <time>2022-09-25T10:23:15Z</time>
      </trkpt>
      <trkpt lat="51.258644135668874" lon="4.592507611960173">
        <ele>274.13</ele>
        <time>2022-09-25T10:23:16Z</time>
      </trkpt>
      <trkpt lat="51.258657295256853" lon="4.592492859810591">
        <ele>274.13</ele>
        <time>2022-09-25T10:23:17Z</time>
      </trkpt>
      <trkpt lat="51.258666850626469" lon="4.592479784041643">
        <ele>274.13</ele>
        <time>2022-09-25T10:23:18Z</time>
      </trkpt>
      <trkpt lat="51.258681183680892" lon="4.592464864253998">
        <ele>274.13</ele>
        <time>2022-09-25T10:23:19Z</time>
      </trkpt>
      <trkpt lat="51.258920822292566" lon="4.592199074104428">
        <ele>274.13</ele>
        <time>2022-09-25T10:23:38Z</time>
      </trkpt>
      <trkpt lat="51.259233299642801" lon="4.59193822927773">
        <ele>274.13</ele>
        <time>2022-09-25T10:23:59Z</time>
      </trkpt>
      <trkpt lat="51.259253164753318" lon="4.591907635331154">
        <ele>274.13</ele>
        <time>2022-09-25T10:24:01Z</time>
      </trkpt>
      <trkpt lat="51.25950638204813" lon="4.591663219034672">
        <ele>274.13</ele>
        <time>2022-09-25T10:24:21Z</time>
      </trkpt>
      <trkpt lat="51.259508142247796" lon="4.591489881277084">
        <ele>274.13</ele>
        <time>2022-09-25T10:24:26Z</time>
      </trkpt>
      <trkpt lat="51.259513506665826" lon="4.591186624020338">
        <ele>274.13</ele>
        <time>2022-09-25T10:24:40Z</time>
      </trkpt>
      <trkpt lat="51.259486684575677" lon="4.590874901041389">
        <ele>274.13</ele>
        <time>2022-09-25T10:24:56Z</time>
      </trkpt>
      <trkpt lat="51.259470507502556" lon="4.590858891606331">
        <ele>274.13</ele>
        <time>2022-09-25T10:25:30Z</time>
      </trkpt>
      <trkpt lat="51.259467322379351" lon="4.590866519138217">
        <ele>274.13</ele>
        <time>2022-09-25T10:26:18Z</time>
      </trkpt>
      <trkpt lat="51.259466400370002" lon="4.590869201347232">
        <ele>274.13</ele>
        <time>2022-09-25T10:27:07Z</time>
      </trkpt>
      <trkpt lat="51.259465645998716" lon="4.590859394520521">
        <ele>274.13</ele>
        <time>2022-09-25T10:27:29Z</time>
      </trkpt>
      <trkpt lat="51.259366739541292" lon="4.590717069804668">
        <ele>274.12</ele>
        <time>2022-09-25T11:45:45Z</time>
      </trkpt>
      <trkpt lat="51.25943505205214" lon="4.59087448194623">
        <ele>274.12</ele>
        <time>2022-09-25T11:46:13Z</time>
      </trkpt>
      <trkpt lat="51.25949464738369" lon="4.591055698692799">
        <ele>274.12</ele>
        <time>2022-09-25T11:46:24Z</time>
      </trkpt>
      <trkpt lat="51.259486014023423" lon="4.591263569891453">
        <ele>274.12</ele>
        <time>2022-09-25T11:46:32Z</time>
      </trkpt>
      <trkpt lat="51.259451312944293" lon="4.591659447178245">
        <ele>274.12</ele>
        <time>2022-09-25T11:46:51Z</time>
      </trkpt>
      <trkpt lat="51.259172530844808" lon="4.591941833496094">
        <ele>274.12</ele>
        <time>2022-09-25T11:47:15Z</time>
      </trkpt>
      <trkpt lat="51.258828537538648" lon="4.592294879257679">
        <ele>274.12</ele>
        <time>2022-09-25T11:47:41Z</time>
      </trkpt>
      <trkpt lat="51.258577415719628" lon="4.592570476233959">
        <ele>274.12</ele>
        <time>2022-09-25T11:48:00Z</time>
      </trkpt>
      <trkpt lat="51.258250772953033" lon="4.592917570844293">
        <ele>274.12</ele>
        <time>2022-09-25T11:48:24Z</time>
      </trkpt>
      <trkpt lat="51.257908958941698" lon="4.593251505866647">
        <ele>274.12</ele>
        <time>2022-09-25T11:48:49Z</time>
      </trkpt>
      <trkpt lat="51.257659429684281" lon="4.593508495017886">
        <ele>274.12</ele>
        <time>2022-09-25T11:49:05Z</time>
      </trkpt>
      <trkpt lat="51.257464550435543" lon="4.593704380095005">
        <ele>274.12</ele>
        <time>2022-09-25T11:49:19Z</time>
      </trkpt>
      <trkpt lat="51.257440075278282" lon="4.593716533854604">
        <ele>274.12</ele>
        <time>2022-09-25T11:49:21Z</time>
      </trkpt>
      <trkpt lat="51.257206303998828" lon="4.593872604891658">
        <ele>274.12</ele>
        <time>2022-09-25T11:49:38Z</time>
      </trkpt>
      <trkpt lat="51.256912518292665" lon="4.594123978167772">
        <ele>274.12</ele>
        <time>2022-09-25T11:50:00Z</time>
      </trkpt>
      <trkpt lat="51.256619738414884" lon="4.594440311193466">
        <ele>274.12</ele>
        <time>2022-09-25T11:50:22Z</time>
      </trkpt>
      <trkpt lat="51.256533907726407" lon="4.594537960365415">
        <ele>274.12</ele>
        <time>2022-09-25T11:50:30Z</time>
      </trkpt>
      <trkpt lat="51.256376579403877" lon="4.594694282859564">
        <ele>274.12</ele>
        <time>2022-09-25T11:50:42Z</time>
      </trkpt>
      <trkpt lat="51.25618421472609" lon="4.594842474907637">
        <ele>274.12</ele>
        <time>2022-09-25T11:50:55Z</time>
      </trkpt>
      <trkpt lat="51.255926303565502" lon="4.594874745234847">
        <ele>274.12</ele>
        <time>2022-09-25T11:51:08Z</time>
      </trkpt>
      <trkpt lat="51.255873246118426" lon="4.594887988641858">
        <ele>274.12</ele>
        <time>2022-09-25T11:51:11Z</time>
      </trkpt>
      <trkpt lat="51.255857571959496" lon="4.594890670850873">
        <ele>274.12</ele>
        <time>2022-09-25T11:51:12Z</time>
      </trkpt>
      <trkpt lat="51.255840808153152" lon="4.594899388030171">
        <ele>274.12</ele>
        <time>2022-09-25T11:51:13Z</time>
      </trkpt>
      <trkpt lat="51.255827397108078" lon="4.594905003905296">
        <ele>274.12</ele>
        <time>2022-09-25T11:51:14Z</time>
      </trkpt>
      <trkpt lat="51.255812561139464" lon="4.594909446313977">
        <ele>274.12</ele>
        <time>2022-09-25T11:51:15Z</time>
      </trkpt>
      <trkpt lat="51.255798144266009" lon="4.594915648922324">
        <ele>274.12</ele>
        <time>2022-09-25T11:51:16Z</time>
      </trkpt>
      <trkpt lat="51.255499077960849" lon="4.59502930752933">
        <ele>274.12</ele>
        <time>2022-09-25T11:51:29Z</time>
      </trkpt>
      <trkpt lat="51.255029356107116" lon="4.595156544819474">
        <ele>274.12</ele>
        <time>2022-09-25T11:51:43Z</time>
      </trkpt>
      <trkpt lat="51.254504565149546" lon="4.595273220911622">
        <ele>274.12</ele>
        <time>2022-09-25T11:51:53Z</time>
      </trkpt>
      <trkpt lat="51.25402981415391" lon="4.595439853146672">
        <ele>274.12</ele>
        <time>2022-09-25T11:52:04Z</time>
      </trkpt>
      <trkpt lat="51.25369755551219" lon="4.595469441264868">
        <ele>274.12</ele>
        <time>2022-09-25T11:52:12Z</time>
      </trkpt>
      <trkpt lat="51.253647515550256" lon="4.595474554225802">
        <ele>274.12</ele>
        <time>2022-09-25T11:52:13Z</time>
      </trkpt>
      <trkpt lat="51.253592949360609" lon="4.595485366880894">
        <ele>274.12</ele>
        <time>2022-09-25T11:52:14Z</time>
      </trkpt>
      <trkpt lat="51.25354022718966" lon="4.595485953614116">
        <ele>274.12</ele>
        <time>2022-09-25T11:52:15Z</time>
      </trkpt>
      <trkpt lat="51.253491444513202" lon="4.59549400024116">
        <ele>274.12</ele>
        <time>2022-09-25T11:52:16Z</time>
      </trkpt>
      <trkpt lat="51.252921810373664" lon="4.595597600564361">
        <ele>274.12</ele>
        <time>2022-09-25T11:52:27Z</time>
      </trkpt>
      <trkpt lat="51.252764398232102" lon="4.595571113750339">
        <ele>274.12</ele>
        <time>2022-09-25T11:52:36Z</time>
      </trkpt>
      <trkpt lat="51.252555605024099" lon="4.595552254468203">
        <ele>274.12</ele>
        <time>2022-09-25T11:52:51Z</time>
      </trkpt>
      <trkpt lat="51.252418644726276" lon="4.595519565045834">
        <ele>274.12</ele>
        <time>2022-09-25T11:53:05Z</time>
      </trkpt>
      <trkpt lat="51.252163918688893" lon="4.595574717968702">
        <ele>274.12</ele>
        <time>2022-09-25T11:53:20Z</time>
      </trkpt>
      <trkpt lat="51.25191112048924" lon="4.595597768202424">
        <ele>274.12</ele>
        <time>2022-09-25T11:53:33Z</time>
      </trkpt>
      <trkpt lat="51.251519182696939" lon="4.595702458173037">
        <ele>274.12</ele>
        <time>2022-09-25T11:53:47Z</time>
      </trkpt>
      <trkpt lat="51.251191031187773" lon="4.595998423174024">
        <ele>274.12</ele>
        <time>2022-09-25T11:53:56Z</time>
      </trkpt>
      <trkpt lat="51.250617541372776" lon="4.596576355397701">
        <ele>274.12</ele>
        <time>2022-09-25T11:54:07Z</time>
      </trkpt>
      <trkpt lat="51.250076238065958" lon="4.597062421962619">
        <ele>274.12</ele>
        <time>2022-09-25T11:54:18Z</time>
      </trkpt>
      <trkpt lat="51.249483386054635" lon="4.597630714997649">
        <ele>274.12</ele>
        <time>2022-09-25T11:54:29Z</time>
      </trkpt>
      <trkpt lat="51.248999247327447" lon="4.598147962242365">
        <ele>274.12</ele>
        <time>2022-09-25T11:54:40Z</time>
      </trkpt>
      <trkpt lat="51.248694313690066" lon="4.598495224490762">
        <ele>274.12</ele>
        <time>2022-09-25T11:54:50Z</time>
      </trkpt>
      <trkpt lat="51.248516114428639" lon="4.598640147596598">
        <ele>274.12</ele>
        <time>2022-09-25T11:55:01Z</time>
      </trkpt>
      <trkpt lat="51.248225010931492" lon="4.598863106220961">
        <ele>274.12</ele>
        <time>2022-09-25T11:55:19Z</time>
      </trkpt>
      <trkpt lat="51.247942373156548" lon="4.599107354879379">
        <ele>274.12</ele>
        <time>2022-09-25T11:55:39Z</time>
      </trkpt>
      <trkpt lat="51.247721174731851" lon="4.599344227463007">
        <ele>274.12</ele>
        <time>2022-09-25T11:55:57Z</time>
      </trkpt>
      <trkpt lat="51.247497964650393" lon="4.599602222442627">
        <ele>274.12</ele>
        <time>2022-09-25T11:56:17Z</time>
      </trkpt>
      <trkpt lat="51.247468795627356" lon="4.599622925743461">
        <ele>274.12</ele>
        <time>2022-09-25T11:56:18Z</time>
      </trkpt>
      <trkpt lat="51.247439961880445" lon="4.599647652357817">
        <ele>274.12</ele>
        <time>2022-09-25T11:56:19Z</time>
      </trkpt>
      <trkpt lat="51.247421773150563" lon="4.599663326516748">
        <ele>274.12</ele>
        <time>2022-09-25T11:56:20Z</time>
      </trkpt>
      <trkpt lat="51.247195294126868" lon="4.599870862439275">
        <ele>274.12</ele>
        <time>2022-09-25T11:56:35Z</time>
      </trkpt>
      <trkpt lat="51.247113905847073" lon="4.599927272647619">
        <ele>274.12</ele>
        <time>2022-09-25T11:56:41Z</time>
      </trkpt>
      <trkpt lat="51.247097812592983" lon="4.599927440285683">
        <ele>274.12</ele>
        <time>2022-09-25T11:56:42Z</time>
      </trkpt>
      <trkpt lat="51.247078450396657" lon="4.599924003705382">
        <ele>274.12</ele>
        <time>2022-09-25T11:56:43Z</time>
      </trkpt>
      <trkpt lat="51.246858928352594" lon="4.599876059219241">
        <ele>274.12</ele>
        <time>2022-09-25T11:56:59Z</time>
      </trkpt>
      <trkpt lat="51.246817773208022" lon="4.59988234564662">
        <ele>274.12</ele>
        <time>2022-09-25T11:57:03Z</time>
      </trkpt>
      <trkpt lat="51.246806709095836" lon="4.59988284856081">
        <ele>274.12</ele>
        <time>2022-09-25T11:57:04Z</time>
      </trkpt>
      <trkpt lat="51.246795058250427" lon="4.599886117503047">
        <ele>274.12</ele>
        <time>2022-09-25T11:57:05Z</time>
      </trkpt>
      <trkpt lat="51.246783155947924" lon="4.599889134988189">
        <ele>274.12</ele>
        <time>2022-09-25T11:57:06Z</time>
      </trkpt>
      <trkpt lat="51.246772762387991" lon="4.599891901016235">
        <ele>274.12</ele>
        <time>2022-09-25T11:57:07Z</time>
      </trkpt>
      <trkpt lat="51.246507223695517" lon="4.599963817745447">
        <ele>274.12</ele>
        <time>2022-09-25T11:57:26Z</time>
      </trkpt>
      <trkpt lat="51.246246546506882" lon="4.600039087235928">
        <ele>274.12</ele>
        <time>2022-09-25T11:57:42Z</time>
      </trkpt>
      <trkpt lat="51.245960891246796" lon="4.600068340077996">
        <ele>274.12</ele>
        <time>2022-09-25T11:58:00Z</time>
      </trkpt>
      <trkpt lat="51.24574170447886" lon="4.600182166323066">
        <ele>274.12</ele>
        <time>2022-09-25T11:58:14Z</time>
      </trkpt>
      <trkpt lat="51.245381031185389" lon="4.600284090265632">
        <ele>274.12</ele>
        <time>2022-09-25T11:58:37Z</time>
      </trkpt>
      <trkpt lat="51.245120689272881" lon="4.600368076935411">
        <ele>274.12</ele>
        <time>2022-09-25T11:58:54Z</time>
      </trkpt>
      <trkpt lat="51.245105937123299" lon="4.600374866276979">
        <ele>274.12</ele>
        <time>2022-09-25T11:58:55Z</time>
      </trkpt>
      <trkpt lat="51.245092358440161" lon="4.600384589284658">
        <ele>274.12</ele>
        <time>2022-09-25T11:58:56Z</time>
      </trkpt>
      <trkpt lat="51.245078612118959" lon="4.600394228473306">
        <ele>274.12</ele>
        <time>2022-09-25T11:58:57Z</time>
      </trkpt>
      <trkpt lat="51.245063776150346" lon="4.600403113290668">
        <ele>274.12</ele>
        <time>2022-09-25T11:58:58Z</time>
      </trkpt>
      <trkpt lat="51.244799830019474" lon="4.600483328104019">
        <ele>274.12</ele>
        <time>2022-09-25T11:59:16Z</time>
      </trkpt>
      <trkpt lat="51.24453186057508" lon="4.600500762462616">
        <ele>274.12</ele>
        <time>2022-09-25T11:59:34Z</time>
      </trkpt>
      <trkpt lat="51.244319630786777" lon="4.600660521537066">
        <ele>274.12</ele>
        <time>2022-09-25T11:59:50Z</time>
      </trkpt>
      <trkpt lat="51.244034394621849" lon="4.600965287536383">
        <ele>274.12</ele>
        <time>2022-09-25T12:00:04Z</time>
      </trkpt>
      <trkpt lat="51.243626866489649" lon="4.601227724924684">
        <ele>274.11000000000001</ele>
        <time>2022-09-25T12:00:19Z</time>
      </trkpt>
      <trkpt lat="51.24319008551538" lon="4.60151388309896">
        <ele>274.11000000000001</ele>
        <time>2022-09-25T12:00:33Z</time>
      </trkpt>
      <trkpt lat="51.242839302867651" lon="4.602051163092256">
        <ele>274.11000000000001</ele>
        <time>2022-09-25T12:00:47Z</time>
      </trkpt>
      <trkpt lat="51.242307303473353" lon="4.602590706199408">
        <ele>274.11000000000001</ele>
        <time>2022-09-25T12:01:02Z</time>
      </trkpt>
      <trkpt lat="51.241873372346163" lon="4.603135865181685">
        <ele>274.11000000000001</ele>
        <time>2022-09-25T12:01:13Z</time>
      </trkpt>
      <trkpt lat="51.241252021864057" lon="4.603857882320881">
        <ele>274.11000000000001</ele>
        <time>2022-09-25T12:01:29Z</time>
      </trkpt>
      <trkpt lat="51.240880703553557" lon="4.604524159803987">
        <ele>274.11000000000001</ele>
        <time>2022-09-25T12:01:41Z</time>
      </trkpt>
      <trkpt lat="51.240600077435374" lon="4.604956498369575">
        <ele>274.11000000000001</ele>
        <time>2022-09-25T12:01:53Z</time>
      </trkpt>
      <trkpt lat="51.240460937842727" lon="4.605073258280754">
        <ele>274.11000000000001</ele>
        <time>2022-09-25T12:02:00Z</time>
      </trkpt>
      <trkpt lat="51.240430092439055" lon="4.605071498081088">
        <ele>274.11000000000001</ele>
        <time>2022-09-25T12:02:01Z</time>
      </trkpt>
      <trkpt lat="51.240407461300492" lon="4.605075102299452">
        <ele>274.11000000000001</ele>
        <time>2022-09-25T12:02:02Z</time>
      </trkpt>
      <trkpt lat="51.240379549562931" lon="4.605070240795612">
        <ele>274.11000000000001</ele>
        <time>2022-09-25T12:02:03Z</time>
      </trkpt>
      <trkpt lat="51.240356583148241" lon="4.605062026530504">
        <ele>274.11000000000001</ele>
        <time>2022-09-25T12:02:04Z</time>
      </trkpt>
      <trkpt lat="51.240337807685137" lon="4.605046017095447">
        <ele>274.11000000000001</ele>
        <time>2022-09-25T12:02:05Z</time>
      </trkpt>
      <trkpt lat="51.240320960059762" lon="4.605034533888102">
        <ele>274.11000000000001</ele>
        <time>2022-09-25T12:02:06Z</time>
      </trkpt>
      <trkpt lat="51.240305285900831" lon="4.605016596615315">
        <ele>274.11000000000001</ele>
        <time>2022-09-25T12:02:07Z</time>
      </trkpt>
      <trkpt lat="51.240081656724215" lon="4.604746950790286">
        <ele>274.11000000000001</ele>
        <time>2022-09-25T12:02:25Z</time>
      </trkpt>
      <trkpt lat="51.239749565720558" lon="4.604545198380947">
        <ele>274.11000000000001</ele>
        <time>2022-09-25T12:02:49Z</time>
      </trkpt>
      <trkpt lat="51.239462066441774" lon="4.604286951944232">
        <ele>274.11000000000001</ele>
        <time>2022-09-25T12:03:10Z</time>
      </trkpt>
      <trkpt lat="51.239190492779016" lon="4.604050079360604">
        <ele>274.11000000000001</ele>
        <time>2022-09-25T12:03:29Z</time>
      </trkpt>
      <trkpt lat="51.238985722884536" lon="4.603883363306522">
        <ele>274.11000000000001</ele>
        <time>2022-09-25T12:03:44Z</time>
      </trkpt>
      <trkpt lat="51.238758070394397" lon="4.603642383590341">
        <ele>274.11000000000001</ele>
        <time>2022-09-25T12:04:02Z</time>
      </trkpt>
      <trkpt lat="51.238489346578717" lon="4.603459741920233">
        <ele>274.11000000000001</ele>
        <time>2022-09-25T12:04:19Z</time>
      </trkpt>
      <trkpt lat="51.238247444853187" lon="4.603300234302878">
        <ele>274.11000000000001</ele>
        <time>2022-09-25T12:04:37Z</time>
      </trkpt>
      <trkpt lat="51.238053319975734" lon="4.603048274293542">
        <ele>274.11000000000001</ele>
        <time>2022-09-25T12:04:52Z</time>
      </trkpt>
      <trkpt lat="51.237871516495943" lon="4.602762619033456">
        <ele>274.11000000000001</ele>
        <time>2022-09-25T12:05:10Z</time>
      </trkpt>
      <trkpt lat="51.237812675535679" lon="4.60264309309423">
        <ele>274.11000000000001</ele>
        <time>2022-09-25T12:05:16Z</time>
      </trkpt>
      <trkpt lat="51.237799180671573" lon="4.602615432813764">
        <ele>274.11000000000001</ele>
        <time>2022-09-25T12:05:17Z</time>
      </trkpt>
      <trkpt lat="51.237789625301957" lon="4.602598752826452">
        <ele>274.11000000000001</ele>
        <time>2022-09-25T12:05:18Z</time>
      </trkpt>
      <trkpt lat="51.23777654953301" lon="4.602575367316604">
        <ele>274.11000000000001</ele>
        <time>2022-09-25T12:05:19Z</time>
      </trkpt>
      <trkpt lat="51.237706812098622" lon="4.60238610394299">
        <ele>274.11000000000001</ele>
        <time>2022-09-25T12:05:29Z</time>
      </trkpt>
      <trkpt lat="51.237705806270242" lon="4.602346876636148">
        <ele>274.11000000000001</ele>
        <time>2022-09-25T12:05:30Z</time>
      </trkpt>
      <trkpt lat="51.237707566469908" lon="4.602312678471208">
        <ele>274.11000000000001</ele>
        <time>2022-09-25T12:05:31Z</time>
      </trkpt>
      <trkpt lat="51.237705135717988" lon="4.602204887196422">
        <ele>274.11000000000001</ele>
        <time>2022-09-25T12:05:34Z</time>
      </trkpt>
      <trkpt lat="51.237711673602462" lon="4.602179992944002">
        <ele>274.11000000000001</ele>
        <time>2022-09-25T12:05:35Z</time>
      </trkpt>
      <trkpt lat="51.237707398831844" lon="4.60215350612998">
        <ele>274.11000000000001</ele>
        <time>2022-09-25T12:05:36Z</time>
      </trkpt>
      <trkpt lat="51.237698849290609" lon="4.602137580513954">
        <ele>274.11000000000001</ele>
        <time>2022-09-25T12:05:37Z</time>
      </trkpt>
      <trkpt lat="51.237688455730677" lon="4.602125762030482">
        <ele>274.11000000000001</ele>
        <time>2022-09-25T12:05:38Z</time>
      </trkpt>
      <trkpt lat="51.237505311146379" lon="4.6018036454916">
        <ele>274.11000000000001</ele>
        <time>2022-09-25T12:05:58Z</time>
      </trkpt>
      <trkpt lat="51.237307246774435" lon="4.601474069058895">
        <ele>274.11000000000001</ele>
        <time>2022-09-25T12:06:17Z</time>
      </trkpt>
      <trkpt lat="51.237156204879284" lon="4.601177265867591">
        <ele>274.11000000000001</ele>
        <time>2022-09-25T12:06:34Z</time>
      </trkpt>
      <trkpt lat="51.236975491046906" lon="4.600856071338058">
        <ele>274.11000000000001</ele>
        <time>2022-09-25T12:06:50Z</time>
      </trkpt>
      <trkpt lat="51.236803075298667" lon="4.600543761625886">
        <ele>274.11000000000001</ele>
        <time>2022-09-25T12:07:07Z</time>
      </trkpt>
      <trkpt lat="51.236515324562788" lon="4.600012432783842">
        <ele>274.11000000000001</ele>
        <time>2022-09-25T12:07:32Z</time>
      </trkpt>
      <trkpt lat="51.236312733963132" lon="4.599669864401221">
        <ele>274.11000000000001</ele>
        <time>2022-09-25T12:07:48Z</time>
      </trkpt>
      <trkpt lat="51.236160770058632" lon="4.599338276311755">
        <ele>274.11000000000001</ele>
        <time>2022-09-25T12:08:00Z</time>
      </trkpt>
      <trkpt lat="51.236144257709384" lon="4.599323775619268">
        <ele>274.11000000000001</ele>
        <time>2022-09-25T12:08:01Z</time>
      </trkpt>
      <trkpt lat="51.235964130610228" lon="4.599016914144158">
        <ele>274.11000000000001</ele>
        <time>2022-09-25T12:08:17Z</time>
      </trkpt>
      <trkpt lat="51.235816106200218" lon="4.598741484805942">
        <ele>274.11000000000001</ele>
        <time>2022-09-25T12:08:33Z</time>
      </trkpt>
      <trkpt lat="51.235654335469007" lon="4.598577115684748">
        <ele>274.11000000000001</ele>
        <time>2022-09-25T12:08:47Z</time>
      </trkpt>
      <trkpt lat="51.235430873930454" lon="4.59835097193718">
        <ele>274.11000000000001</ele>
        <time>2022-09-25T12:09:03Z</time>
      </trkpt>
      <trkpt lat="51.235109847038984" lon="4.598010163754225">
        <ele>274.11000000000001</ele>
        <time>2022-09-25T12:09:24Z</time>
      </trkpt>
      <trkpt lat="51.235024183988571" lon="4.59791804663837">
        <ele>274.11000000000001</ele>
        <time>2022-09-25T12:09:30Z</time>
      </trkpt>
      <trkpt lat="51.235012700781226" lon="4.597901618108153">
        <ele>274.11000000000001</ele>
        <time>2022-09-25T12:09:31Z</time>
      </trkpt>
      <trkpt lat="51.235000044107437" lon="4.597890386357904">
        <ele>274.11000000000001</ele>
        <time>2022-09-25T12:09:32Z</time>
      </trkpt>
      <trkpt lat="51.234986633062363" lon="4.597881333902478">
        <ele>274.11000000000001</ele>
        <time>2022-09-25T12:09:33Z</time>
      </trkpt>
      <trkpt lat="51.23497380875051" lon="4.597870018333197">
        <ele>274.11000000000001</ele>
        <time>2022-09-25T12:09:34Z</time>
      </trkpt>
      <trkpt lat="51.234961906448007" lon="4.597859792411327">
        <ele>274.11000000000001</ele>
        <time>2022-09-25T12:09:35Z</time>
      </trkpt>
      <trkpt lat="51.23475881293416" lon="4.59769575856626">
        <ele>274.11000000000001</ele>
        <time>2022-09-25T12:09:51Z</time>
      </trkpt>
      <trkpt lat="51.234680106863379" lon="4.5976522564888">
        <ele>274.11000000000001</ele>
        <time>2022-09-25T12:09:58Z</time>
      </trkpt>
      <trkpt lat="51.234665689989924" lon="4.597657369449735">
        <ele>274.11000000000001</ele>
        <time>2022-09-25T12:09:59Z</time>
      </trkpt>
      <trkpt lat="51.234634090214968" lon="4.597684945911169">
        <ele>274.11000000000001</ele>
        <time>2022-09-25T12:10:02Z</time>
      </trkpt>
      <trkpt lat="51.234627468511462" lon="4.597704811021686">
        <ele>274.11000000000001</ele>
        <time>2022-09-25T12:10:03Z</time>
      </trkpt>
      <trkpt lat="51.234622439369559" lon="4.597725681960583">
        <ele>274.11000000000001</ele>
        <time>2022-09-25T12:10:04Z</time>
      </trkpt>
      <trkpt lat="51.234618332237005" lon="4.597748564556241">
        <ele>274.11000000000001</ele>
        <time>2022-09-25T12:10:05Z</time>
      </trkpt>
      <trkpt lat="51.234613973647356" lon="4.597772117704153">
        <ele>274.11000000000001</ele>
        <time>2022-09-25T12:10:06Z</time>
      </trkpt>
      <trkpt lat="51.234539458528161" lon="4.598188949748874">
        <ele>274.11000000000001</ele>
        <time>2022-09-25T12:10:22Z</time>
      </trkpt>
      <trkpt lat="51.234459914267063" lon="4.598512491211295">
        <ele>274.11000000000001</ele>
        <time>2022-09-25T12:10:37Z</time>
      </trkpt>
      <trkpt lat="51.23439478687942" lon="4.598626820370555">
        <ele>274.11000000000001</ele>
        <time>2022-09-25T12:10:45Z</time>
      </trkpt>
      <trkpt lat="51.23431951738894" lon="4.59858013316989">
        <ele>274.11000000000001</ele>
        <time>2022-09-25T12:10:59Z</time>
      </trkpt>
      <trkpt lat="51.234209379181266" lon="4.598372764885426">
        <ele>274.11000000000001</ele>
        <time>2022-09-25T12:11:15Z</time>
      </trkpt>
      <trkpt lat="51.233952641487122" lon="4.598165480419993">
        <ele>274.11000000000001</ele>
        <time>2022-09-25T12:11:35Z</time>
      </trkpt>
      <trkpt lat="51.233638320118189" lon="4.59783255122602">
        <ele>274.11000000000001</ele>
        <time>2022-09-25T12:12:05Z</time>
      </trkpt>
      <trkpt lat="51.233382755890489" lon="4.597454611212015">
        <ele>274.11000000000001</ele>
        <time>2022-09-25T12:12:30Z</time>
      </trkpt>
      <trkpt lat="51.233360376209021" lon="4.597428375855088">
        <ele>274.11000000000001</ele>
        <time>2022-09-25T12:12:32Z</time>
      </trkpt>
      <trkpt lat="51.233031051233411" lon="4.597048172727227">
        <ele>274.11000000000001</ele>
        <time>2022-09-25T12:12:59Z</time>
      </trkpt>
      <trkpt lat="51.232701977714896" lon="4.596704263240099">
        <ele>274.11000000000001</ele>
        <time>2022-09-25T12:13:26Z</time>
      </trkpt>
      <trkpt lat="51.232482707127929" lon="4.596753045916557">
        <ele>274.11000000000001</ele>
        <time>2022-09-25T12:13:49Z</time>
      </trkpt>
      <trkpt lat="51.232356391847134" lon="4.596913391724229">
        <ele>274.11000000000001</ele>
        <time>2022-09-25T12:14:01Z</time>
      </trkpt>
      <trkpt lat="51.232083896175027" lon="4.597460394725204">
        <ele>274.11000000000001</ele>
        <time>2022-09-25T12:14:28Z</time>
      </trkpt>
      <trkpt lat="51.231823386624455" lon="4.598000021651387">
        <ele>274.11000000000001</ele>
        <time>2022-09-25T12:14:42Z</time>
      </trkpt>
      <trkpt lat="51.231980128213763" lon="4.598263297230005">
        <ele>274.11000000000001</ele>
        <time>2022-09-25T12:15:05Z</time>
      </trkpt>
      <trkpt lat="51.232287408784032" lon="4.598910883069038">
        <ele>274.11000000000001</ele>
        <time>2022-09-25T12:15:39Z</time>
      </trkpt>
      <trkpt lat="51.232574656605721" lon="4.599174242466688">
        <ele>274.11000000000001</ele>
        <time>2022-09-25T12:16:01Z</time>
      </trkpt>
      <trkpt lat="51.232592929154634" lon="4.599186982959509">
        <ele>274.11000000000001</ele>
        <time>2022-09-25T12:16:02Z</time>
      </trkpt>
      <trkpt lat="51.23302317224443" lon="4.599571712315083">
        <ele>274.11000000000001</ele>
        <time>2022-09-25T12:16:23Z</time>
      </trkpt>
      <trkpt lat="51.233498845249414" lon="4.599902629852295">
        <ele>274.11000000000001</ele>
        <time>2022-09-25T12:16:38Z</time>
      </trkpt>
      <trkpt lat="51.23390176333487" lon="4.600235056132078">
        <ele>274.11000000000001</ele>
        <time>2022-09-25T12:16:50Z</time>
      </trkpt>
      <trkpt lat="51.234243242070079" lon="4.600647110491991">
        <ele>274.11000000000001</ele>
        <time>2022-09-25T12:17:04Z</time>
      </trkpt>
      <trkpt lat="51.234298478811979" lon="4.600761355832219">
        <ele>274.11000000000001</ele>
        <time>2022-09-25T12:17:08Z</time>
      </trkpt>
      <trkpt lat="51.23448958620429" lon="4.601042903959751">
        <ele>274.11000000000001</ele>
        <time>2022-09-25T12:17:23Z</time>
      </trkpt>
      <trkpt lat="51.234495872631669" lon="4.601619075983763">
        <ele>274.11000000000001</ele>
        <time>2022-09-25T12:17:40Z</time>
      </trkpt>
      <trkpt lat="51.234483635053039" lon="4.601825019344688">
        <ele>274.11000000000001</ele>
        <time>2022-09-25T12:18:00Z</time>
      </trkpt>
      <trkpt lat="51.234583463519812" lon="4.602407729253173">
        <ele>274.11000000000001</ele>
        <time>2022-09-25T12:18:13Z</time>
      </trkpt>
      <trkpt lat="51.23449495062232" lon="4.602893963456154">
        <ele>274.11000000000001</ele>
        <time>2022-09-25T12:18:26Z</time>
      </trkpt>
      <trkpt lat="51.234487993642688" lon="4.602906787768006">
        <ele>274.11000000000001</ele>
        <time>2022-09-25T12:18:27Z</time>
      </trkpt>
      <trkpt lat="51.23438648879528" lon="4.603205099701881">
        <ele>274.11000000000001</ele>
        <time>2022-09-25T12:18:46Z</time>
      </trkpt>
      <trkpt lat="51.234283559024334" lon="4.603313896805048">
        <ele>274.11000000000001</ele>
        <time>2022-09-25T12:18:53Z</time>
      </trkpt>
      <trkpt lat="51.234087087213993" lon="4.603519588708878">
        <ele>274.11000000000001</ele>
        <time>2022-09-25T12:19:19Z</time>
      </trkpt>
      <trkpt lat="51.233760109171271" lon="4.603115245699883">
        <ele>274.11000000000001</ele>
        <time>2022-09-25T12:19:40Z</time>
      </trkpt>
      <trkpt lat="51.233529439195991" lon="4.603056237101555">
        <ele>274.11000000000001</ele>
        <time>2022-09-25T12:19:56Z</time>
      </trkpt>
      <trkpt lat="51.233312012627721" lon="4.603042993694544">
        <ele>274.11000000000001</ele>
        <time>2022-09-25T12:20:11Z</time>
      </trkpt>
      <trkpt lat="51.232986710965633" lon="4.603398302569985">
        <ele>274.11000000000001</ele>
        <time>2022-09-25T12:20:36Z</time>
      </trkpt>
      <trkpt lat="51.232741456478834" lon="4.603307358920574">
        <ele>274.11000000000001</ele>
        <time>2022-09-25T12:20:48Z</time>
      </trkpt>
      <trkpt lat="51.232474492862821" lon="4.603501483798027">
        <ele>274.11000000000001</ele>
        <time>2022-09-25T12:21:12Z</time>
      </trkpt>
      <trkpt lat="51.232044165953994" lon="4.603871125727892">
        <ele>274.11000000000001</ele>
        <time>2022-09-25T12:21:41Z</time>
      </trkpt>
      <trkpt lat="51.231769323348999" lon="4.604174131527543">
        <ele>274.11000000000001</ele>
        <time>2022-09-25T12:22:00Z</time>
      </trkpt>
      <trkpt lat="51.231708889827132" lon="4.604253508150578">
        <ele>274.11000000000001</ele>
        <time>2022-09-25T12:22:05Z</time>
      </trkpt>
      <trkpt lat="51.23148400336504" lon="4.604510581120849">
        <ele>274.11000000000001</ele>
        <time>2022-09-25T12:22:23Z</time>
      </trkpt>
      <trkpt lat="51.231349054723978" lon="4.6046391595155">
        <ele>274.11000000000001</ele>
        <time>2022-09-25T12:22:58Z</time>
      </trkpt>
      <trkpt lat="51.231524990871549" lon="4.605008717626333">
        <ele>274.11000000000001</ele>
        <time>2022-09-25T12:23:18Z</time>
      </trkpt>
      <trkpt lat="51.231785081326962" lon="4.605477768927813">
        <ele>274.11000000000001</ele>
        <time>2022-09-25T12:23:46Z</time>
      </trkpt>
      <trkpt lat="51.232102420181036" lon="4.605847075581551">
        <ele>274.11000000000001</ele>
        <time>2022-09-25T12:24:10Z</time>
      </trkpt>
      <trkpt lat="51.232344573363662" lon="4.606248736381531">
        <ele>274.11000000000001</ele>
        <time>2022-09-25T12:24:35Z</time>
      </trkpt>
      <trkpt lat="51.232445910573006" lon="4.60660295560956">
        <ele>274.11000000000001</ele>
        <time>2022-09-25T12:25:01Z</time>
      </trkpt>
      <trkpt lat="51.232388578355312" lon="4.606799930334091">
        <ele>274.11000000000001</ele>
        <time>2022-09-25T12:25:02Z</time>
      </trkpt>
      <trkpt lat="51.232374077662826" lon="4.606823567301035">
        <ele>274.11000000000001</ele>
        <time>2022-09-25T12:25:03Z</time>
      </trkpt>
      <trkpt lat="51.232266537845135" lon="4.607454305514693">
        <ele>274.11000000000001</ele>
        <time>2022-09-25T12:25:31Z</time>
      </trkpt>
      <trkpt lat="51.232206271961331" lon="4.607840795069933">
        <ele>274.11000000000001</ele>
        <time>2022-09-25T12:25:48Z</time>
      </trkpt>
      <trkpt lat="51.232189172878861" lon="4.607907347381115">
        <ele>274.11000000000001</ele>
        <time>2022-09-25T12:25:51Z</time>
      </trkpt>
      <trkpt lat="51.232115160673857" lon="4.608370279893279">
        <ele>274.11000000000001</ele>
        <time>2022-09-25T12:26:11Z</time>
      </trkpt>
      <trkpt lat="51.232032682746649" lon="4.608812006190419">
        <ele>274.11000000000001</ele>
        <time>2022-09-25T12:26:28Z</time>
      </trkpt>
      <trkpt lat="51.232029413804412" lon="4.608838744461536">
        <ele>274.11000000000001</ele>
        <time>2022-09-25T12:26:29Z</time>
      </trkpt>
      <trkpt lat="51.231942158192396" lon="4.609091123566032">
        <ele>274.11000000000001</ele>
        <time>2022-09-25T12:26:44Z</time>
      </trkpt>
      <trkpt lat="51.231814753264189" lon="4.609356746077538">
        <ele>274.11000000000001</ele>
        <time>2022-09-25T12:26:59Z</time>
      </trkpt>
      <trkpt lat="51.231676787137985" lon="4.60982789285481">
        <ele>274.11000000000001</ele>
        <time>2022-09-25T12:27:24Z</time>
      </trkpt>
      <trkpt lat="51.231415774673223" lon="4.61050515063107">
        <ele>274.11000000000001</ele>
        <time>2022-09-25T12:27:55Z</time>
      </trkpt>
      <trkpt lat="51.231250148266554" lon="4.610867584124208">
        <ele>274.11000000000001</ele>
        <time>2022-09-25T12:28:11Z</time>
      </trkpt>
      <trkpt lat="51.231206310912967" lon="4.611043268814683">
        <ele>274.11000000000001</ele>
        <time>2022-09-25T12:28:18Z</time>
      </trkpt>
      <trkpt lat="51.231205388903618" lon="4.611066486686468">
        <ele>274.11000000000001</ele>
        <time>2022-09-25T12:28:19Z</time>
      </trkpt>
      <trkpt lat="51.231207232922316" lon="4.611092638224363">
        <ele>274.11000000000001</ele>
        <time>2022-09-25T12:28:20Z</time>
      </trkpt>
      <trkpt lat="51.231212597340345" lon="4.611120633780956">
        <ele>274.11000000000001</ele>
        <time>2022-09-25T12:28:21Z</time>
      </trkpt>
      <trkpt lat="51.231217291206121" lon="4.611146030947566">
        <ele>274.11000000000001</ele>
        <time>2022-09-25T12:28:22Z</time>
      </trkpt>
      <trkpt lat="51.231114445254207" lon="4.611745085567236">
        <ele>274.11000000000001</ele>
        <time>2022-09-25T12:28:41Z</time>
      </trkpt>
      <trkpt lat="51.231032637879252" lon="4.611730249598622">
        <ele>274.11000000000001</ele>
        <time>2022-09-25T12:29:16Z</time>
      </trkpt>
      <trkpt lat="51.231026770547032" lon="4.611710971221328">
        <ele>274.11000000000001</ele>
        <time>2022-09-25T12:29:17Z</time>
      </trkpt>
      <trkpt lat="51.231002379208803" lon="4.6116709895432">
        <ele>274.11000000000001</ele>
        <time>2022-09-25T12:29:19Z</time>
      </trkpt>
      <trkpt lat="51.230987040325999" lon="4.611662523820996">
        <ele>274.11000000000001</ele>
        <time>2022-09-25T12:29:20Z</time>
      </trkpt>
      <trkpt lat="51.230731727555394" lon="4.611737793311477">
        <ele>274.11000000000001</ele>
        <time>2022-09-25T12:29:38Z</time>
      </trkpt>
      <trkpt lat="51.230448754504323" lon="4.611825970932841">
        <ele>274.11000000000001</ele>
        <time>2022-09-25T12:29:57Z</time>
      </trkpt>
      <trkpt lat="51.2301304936409" lon="4.611926972866058">
        <ele>274.11000000000001</ele>
        <time>2022-09-25T12:30:18Z</time>
      </trkpt>
      <trkpt lat="51.229921197518706" lon="4.612008361145854">
        <ele>274.11000000000001</ele>
        <time>2022-09-25T12:30:34Z</time>
      </trkpt>
      <trkpt lat="51.229905858635902" lon="4.612011546269059">
        <ele>274.11000000000001</ele>
        <time>2022-09-25T12:30:35Z</time>
      </trkpt>
      <trkpt lat="51.229712320491672" lon="4.612039206549525">
        <ele>274.11000000000001</ele>
        <time>2022-09-25T12:30:49Z</time>
      </trkpt>
      <trkpt lat="51.229464886710048" lon="4.61212101392448">
        <ele>274.11000000000001</ele>
        <time>2022-09-25T12:31:05Z</time>
      </trkpt>
      <trkpt lat="51.229230863973498" lon="4.612184716388583">
        <ele>274.11000000000001</ele>
        <time>2022-09-25T12:31:20Z</time>
      </trkpt>
      <trkpt lat="51.229159450158477" lon="4.612208353355527">
        <ele>274.11000000000001</ele>
        <time>2022-09-25T12:31:25Z</time>
      </trkpt>
      <trkpt lat="51.229141261428595" lon="4.612210113555193">
        <ele>274.11000000000001</ele>
        <time>2022-09-25T12:31:26Z</time>
      </trkpt>
      <trkpt lat="51.229125084355474" lon="4.612212376669049">
        <ele>274.11000000000001</ele>
        <time>2022-09-25T12:31:27Z</time>
      </trkpt>
      <trkpt lat="51.229109577834606" lon="4.612214975059032">
        <ele>274.11000000000001</ele>
        <time>2022-09-25T12:31:28Z</time>
      </trkpt>
      <trkpt lat="51.229093987494707" lon="4.612219585105777">
        <ele>274.11000000000001</ele>
        <time>2022-09-25T12:31:29Z</time>
      </trkpt>
      <trkpt lat="51.22907948680222" lon="4.612226458266377">
        <ele>274.11000000000001</ele>
        <time>2022-09-25T12:31:30Z</time>
      </trkpt>
      <trkpt lat="51.229061800986528" lon="4.612228134647012">
        <ele>274.11000000000001</ele>
        <time>2022-09-25T12:31:31Z</time>
      </trkpt>
      <trkpt lat="51.229046462103724" lon="4.61223341524601">
        <ele>274.11000000000001</ele>
        <time>2022-09-25T12:31:32Z</time>
      </trkpt>
      <trkpt lat="51.228940431028605" lon="4.612258980050683">
        <ele>274.11000000000001</ele>
        <time>2022-09-25T12:31:39Z</time>
      </trkpt>
      <trkpt lat="51.228925762698054" lon="4.612267445772886">
        <ele>274.11000000000001</ele>
        <time>2022-09-25T12:31:40Z</time>
      </trkpt>
      <trkpt lat="51.228910926729441" lon="4.612276498228312">
        <ele>274.11000000000001</ele>
        <time>2022-09-25T12:31:41Z</time>
      </trkpt>
      <trkpt lat="51.22860255651176" lon="4.612381355836988">
        <ele>274.11000000000001</ele>
        <time>2022-09-25T12:32:00Z</time>
      </trkpt>
      <trkpt lat="51.228305082768202" lon="4.612389402464032">
        <ele>274.11000000000001</ele>
        <time>2022-09-25T12:32:17Z</time>
      </trkpt>
      <trkpt lat="51.228064522147179" lon="4.612483950331807">
        <ele>274.11000000000001</ele>
        <time>2022-09-25T12:32:35Z</time>
      </trkpt>
      <trkpt lat="51.227841647341847" lon="4.612578749656677">
        <ele>274.11000000000001</ele>
        <time>2022-09-25T12:32:51Z</time>
      </trkpt>
      <trkpt lat="51.227564541622996" lon="4.6126673463732">
        <ele>274.11000000000001</ele>
        <time>2022-09-25T12:33:08Z</time>
      </trkpt>
      <trkpt lat="51.227265223860741" lon="4.612731216475368">
        <ele>274.11000000000001</ele>
        <time>2022-09-25T12:33:26Z</time>
      </trkpt>
      <trkpt lat="51.226928606629372" lon="4.612819645553827">
        <ele>274.11000000000001</ele>
        <time>2022-09-25T12:33:45Z</time>
      </trkpt>
      <trkpt lat="51.226675305515528" lon="4.612833559513092">
        <ele>274.11000000000001</ele>
        <time>2022-09-25T12:34:00Z</time>
      </trkpt>
      <trkpt lat="51.22665099799633" lon="4.612854011356831">
        <ele>274.11000000000001</ele>
        <time>2022-09-25T12:34:02Z</time>
      </trkpt>
      <trkpt lat="51.226640688255429" lon="4.612867003306747">
        <ele>274.11000000000001</ele>
        <time>2022-09-25T12:34:03Z</time>
      </trkpt>
      <trkpt lat="51.226628115400672" lon="4.612873708829284">
        <ele>274.11000000000001</ele>
        <time>2022-09-25T12:34:04Z</time>
      </trkpt>
      <trkpt lat="51.226619482040405" lon="4.612885192036629">
        <ele>274.11000000000001</ele>
        <time>2022-09-25T12:34:05Z</time>
      </trkpt>
      <trkpt lat="51.226611435413361" lon="4.612897848710418">
        <ele>274.11000000000001</ele>
        <time>2022-09-25T12:34:06Z</time>
      </trkpt>
      <trkpt lat="51.226609759032726" lon="4.612915618345141">
        <ele>274.11000000000001</ele>
        <time>2022-09-25T12:34:07Z</time>
      </trkpt>
      <trkpt lat="51.226614201441407" lon="4.612933974713087">
        <ele>274.11000000000001</ele>
        <time>2022-09-25T12:34:08Z</time>
      </trkpt>
      <trkpt lat="51.226626439020038" lon="4.612982589751482">
        <ele>274.11000000000001</ele>
        <time>2022-09-25T12:34:11Z</time>
      </trkpt>
      <trkpt lat="51.226648148149252" lon="4.613310238346458">
        <ele>274.11000000000001</ele>
        <time>2022-09-25T12:34:26Z</time>
      </trkpt>
      <trkpt lat="51.226637922227383" lon="4.613350639119744">
        <ele>274.11000000000001</ele>
        <time>2022-09-25T12:34:27Z</time>
      </trkpt>
      <trkpt lat="51.226630043238401" lon="4.613391542807221">
        <ele>274.11000000000001</ele>
        <time>2022-09-25T12:34:28Z</time>
      </trkpt>
      <trkpt lat="51.226626858115196" lon="4.613428758457303">
        <ele>274.11000000000001</ele>
        <time>2022-09-25T12:34:29Z</time>
      </trkpt>
      <trkpt lat="51.226633563637733" lon="4.613454323261976">
        <ele>274.11000000000001</ele>
        <time>2022-09-25T12:34:30Z</time>
      </trkpt>
      <trkpt lat="51.22664269991219" lon="4.613476535305381">
        <ele>274.11000000000001</ele>
        <time>2022-09-25T12:34:31Z</time>
      </trkpt>
      <trkpt lat="51.226649321615696" lon="4.613497573882341">
        <ele>274.11000000000001</ele>
        <time>2022-09-25T12:34:32Z</time>
      </trkpt>
      <trkpt lat="51.226688297465444" lon="4.613826815038919">
        <ele>274.11000000000001</ele>
        <time>2022-09-25T12:34:46Z</time>
      </trkpt>
      <trkpt lat="51.226707408204675" lon="4.613947430625558">
        <ele>274.11000000000001</ele>
        <time>2022-09-25T12:34:52Z</time>
      </trkpt>
      <trkpt lat="51.226717382669449" lon="4.613967798650265">
        <ele>274.11000000000001</ele>
        <time>2022-09-25T12:34:53Z</time>
      </trkpt>
      <trkpt lat="51.226757951080799" lon="4.614108530804515">
        <ele>274.11000000000001</ele>
        <time>2022-09-25T12:35:00Z</time>
      </trkpt>
      <trkpt lat="51.226756609976292" lon="4.614246664568782">
        <ele>274.11000000000001</ele>
        <time>2022-09-25T12:35:05Z</time>
      </trkpt>
      <trkpt lat="51.226779911667109" lon="4.614701131358743">
        <ele>274.11000000000001</ele>
        <time>2022-09-25T12:35:23Z</time>
      </trkpt>
      <trkpt lat="51.22675065882504" lon="4.61521896533668">
        <ele>274.11000000000001</ele>
        <time>2022-09-25T12:35:44Z</time>
      </trkpt>
      <trkpt lat="51.226746384054422" lon="4.615243691951037">
        <ele>274.11000000000001</ele>
        <time>2022-09-25T12:35:45Z</time>
      </trkpt>
      <trkpt lat="51.226739343255758" lon="4.615274202078581">
        <ele>274.11000000000001</ele>
        <time>2022-09-25T12:35:46Z</time>
      </trkpt>
      <trkpt lat="51.226730793714523" lon="4.615302952006459">
        <ele>274.11000000000001</ele>
        <time>2022-09-25T12:35:47Z</time>
      </trkpt>
      <trkpt lat="51.22672182507813" lon="4.615328013896942">
        <ele>274.11000000000001</ele>
        <time>2022-09-25T12:35:48Z</time>
      </trkpt>
      <trkpt lat="51.226713443174958" lon="4.615353411063552">
        <ele>274.11000000000001</ele>
        <time>2022-09-25T12:35:49Z</time>
      </trkpt>
      <trkpt lat="51.226497609168291" lon="4.61577208712697">
        <ele>274.11000000000001</ele>
        <time>2022-09-25T12:36:10Z</time>
      </trkpt>
      <trkpt lat="51.226383447647095" lon="4.615907454863191">
        <ele>274.11000000000001</ele>
        <time>2022-09-25T12:36:24Z</time>
      </trkpt>
      <trkpt lat="51.226365594193339" lon="4.615916423499584">
        <ele>274.11000000000001</ele>
        <time>2022-09-25T12:36:25Z</time>
      </trkpt>
      <trkpt lat="51.226351512596011" lon="4.615927152335644">
        <ele>274.11000000000001</ele>
        <time>2022-09-25T12:36:26Z</time>
      </trkpt>
      <trkpt lat="51.226246487349272" lon="4.615959171205759">
        <ele>274.11000000000001</ele>
        <time>2022-09-25T12:36:32Z</time>
      </trkpt>
      <trkpt lat="51.22622930444777" lon="4.615958500653505">
        <ele>274.11000000000001</ele>
        <time>2022-09-25T12:36:33Z</time>
      </trkpt>
      <trkpt lat="51.226209523156285" lon="4.615962943062186">
        <ele>274.11000000000001</ele>
        <time>2022-09-25T12:36:34Z</time>
      </trkpt>
      <trkpt lat="51.226185550913215" lon="4.615967469289899">
        <ele>274.11000000000001</ele>
        <time>2022-09-25T12:36:35Z</time>
      </trkpt>
      <trkpt lat="51.226166021078825" lon="4.615977359935641">
        <ele>274.11000000000001</ele>
        <time>2022-09-25T12:36:36Z</time>
      </trkpt>
      <trkpt lat="51.226150095462799" lon="4.615988507866859">
        <ele>274.11000000000001</ele>
        <time>2022-09-25T12:36:37Z</time>
      </trkpt>
      <trkpt lat="51.226103492081165" lon="4.616150613874197">
        <ele>274.11000000000001</ele>
        <time>2022-09-25T12:36:41Z</time>
      </trkpt>
      <trkpt lat="51.224852157756686" lon="4.61652310565114">
        <ele>274.11000000000001</ele>
        <time>2022-09-25T12:37:46Z</time>
      </trkpt>
      <trkpt lat="51.223751697689295" lon="4.617056781426072">
        <ele>274.11000000000001</ele>
        <time>2022-09-25T12:38:42Z</time>
      </trkpt>
      <trkpt lat="51.223292704671621" lon="4.6169862896204">
        <ele>274.11000000000001</ele>
        <time>2022-09-25T12:39:12Z</time>
      </trkpt>
      <trkpt lat="51.223129173740745" lon="4.616613714024425">
        <ele>274.11000000000001</ele>
        <time>2022-09-25T12:39:18Z</time>
      </trkpt>
      <trkpt lat="51.222645035013556" lon="4.614720912650228">
        <ele>274.11000000000001</ele>
        <time>2022-09-25T12:40:52Z</time>
      </trkpt>
      <trkpt lat="51.221362184733152" lon="4.614730970934033">
        <ele>274.11000000000001</ele>
        <time>2022-09-25T12:42:56Z</time>
      </trkpt>
      <trkpt lat="51.221217596903443" lon="4.614771287888289">
        <ele>274.11000000000001</ele>
        <time>2022-09-25T12:43:09Z</time>
      </trkpt>
      <trkpt lat="51.221251375973225" lon="4.614807330071926">
        <ele>274.11000000000001</ele>
        <time>2022-09-25T12:43:20Z</time>
      </trkpt>
      <trkpt lat="51.221262523904443" lon="4.614817723631859">
        <ele>274.11000000000001</ele>
        <time>2022-09-25T12:43:21Z</time>
      </trkpt>
      <trkpt lat="51.221506437286735" lon="4.614999610930681">
        <ele>274.11000000000001</ele>
        <time>2022-09-25T12:43:40Z</time>
      </trkpt>
      <trkpt lat="51.221785973757505" lon="4.61525609716773">
        <ele>274.11000000000001</ele>
        <time>2022-09-25T12:44:01Z</time>
      </trkpt>
      <trkpt lat="51.221862249076366" lon="4.615519288927317">
        <ele>274.11000000000001</ele>
        <time>2022-09-25T12:44:15Z</time>
      </trkpt>
      <trkpt lat="51.221915390342474" lon="4.616094622761011">
        <ele>274.11000000000001</ele>
        <time>2022-09-25T12:44:37Z</time>
      </trkpt>
      <trkpt lat="51.221996946260333" lon="4.616439957171679">
        <ele>274.11000000000001</ele>
        <time>2022-09-25T12:44:54Z</time>
      </trkpt>
      <trkpt lat="51.222054865211248" lon="4.616762576624751">
        <ele>274.11000000000001</ele>
        <time>2022-09-25T12:45:11Z</time>
      </trkpt>
      <trkpt lat="51.222015470266342" lon="4.616908757016063">
        <ele>274.11000000000001</ele>
        <time>2022-09-25T12:45:24Z</time>
      </trkpt>
      <trkpt lat="51.22201488353312" lon="4.616917222738266">
        <ele>274.11000000000001</ele>
        <time>2022-09-25T12:45:47Z</time>
      </trkpt>
      <trkpt lat="51.222032653167844" lon="4.61689492687583">
        <ele>274.11000000000001</ele>
        <time>2022-09-25T12:46:03Z</time>
      </trkpt>
      <trkpt lat="51.222046399489045" lon="4.616880510002375">
        <ele>274.11000000000001</ele>
        <time>2022-09-25T12:46:18Z</time>
      </trkpt>
      <trkpt lat="51.222030809149146" lon="4.616936082020402">
        <ele>274.11000000000001</ele>
        <time>2022-09-25T12:46:23Z</time>
      </trkpt>
      <trkpt lat="51.221783040091395" lon="4.617423238232732">
        <ele>274.11000000000001</ele>
        <time>2022-09-25T12:46:49Z</time>
      </trkpt>
      <trkpt lat="51.221635518595576" lon="4.617711408063769">
        <ele>274.11000000000001</ele>
        <time>2022-09-25T12:47:06Z</time>
      </trkpt>
      <trkpt lat="51.221457906067371" lon="4.618053808808327">
        <ele>274.11000000000001</ele>
        <time>2022-09-25T12:47:25Z</time>
      </trkpt>
      <trkpt lat="51.221269816160202" lon="4.618400651961565">
        <ele>274.11000000000001</ele>
        <time>2022-09-25T12:47:43Z</time>
      </trkpt>
      <trkpt lat="51.221249531954527" lon="4.618526548147202">
        <ele>274.11000000000001</ele>
        <time>2022-09-25T12:47:52Z</time>
      </trkpt>
      <trkpt lat="51.22128096409142" lon="4.618605673313141">
        <ele>274.11000000000001</ele>
        <time>2022-09-25T12:47:53Z</time>
      </trkpt>
      <trkpt lat="51.221548765897751" lon="4.620015425607562">
        <ele>274.11000000000001</ele>
        <time>2022-09-25T12:49:02Z</time>
      </trkpt>
      <trkpt lat="51.221640044823289" lon="4.620063789188862">
        <ele>274.11000000000001</ele>
        <time>2022-09-25T12:49:08Z</time>
      </trkpt>
      <trkpt lat="51.221693437546492" lon="4.620119277387857">
        <ele>274.11000000000001</ele>
        <time>2022-09-25T12:49:12Z</time>
      </trkpt>
      <trkpt lat="51.221711542457342" lon="4.620131347328425">
        <ele>274.11000000000001</ele>
        <time>2022-09-25T12:49:13Z</time>
      </trkpt>
      <trkpt lat="51.221732832491398" lon="4.620145345106721">
        <ele>274.11000000000001</ele>
        <time>2022-09-25T12:49:14Z</time>
      </trkpt>
      <trkpt lat="51.221756469458342" lon="4.620161186903715">
        <ele>274.11000000000001</ele>
        <time>2022-09-25T12:49:15Z</time>
      </trkpt>
      <trkpt lat="51.221787482500076" lon="4.62017459794879">
        <ele>274.11000000000001</ele>
        <time>2022-09-25T12:49:16Z</time>
      </trkpt>
      <trkpt lat="51.221817824989557" lon="4.620183315128088">
        <ele>274.11000000000001</ele>
        <time>2022-09-25T12:49:17Z</time>
      </trkpt>
      <trkpt lat="51.221840037032962" lon="4.620191613212228">
        <ele>274.11000000000001</ele>
        <time>2022-09-25T12:49:18Z</time>
      </trkpt>
      <trkpt lat="51.221863925457001" lon="4.620201839134097">
        <ele>274.11000000000001</ele>
        <time>2022-09-25T12:49:19Z</time>
      </trkpt>
      <trkpt lat="51.221890663728118" lon="4.620210053399205">
        <ele>274.11000000000001</ele>
        <time>2022-09-25T12:49:20Z</time>
      </trkpt>
      <trkpt lat="51.221912875771523" lon="4.620217764750123">
        <ele>274.11000000000001</ele>
        <time>2022-09-25T12:49:21Z</time>
      </trkpt>
      <trkpt lat="51.22194841504097" lon="4.62023033760488">
        <ele>274.11000000000001</ele>
        <time>2022-09-25T12:49:22Z</time>
      </trkpt>
      <trkpt lat="51.222270363941789" lon="4.620321532711387">
        <ele>274.11000000000001</ele>
        <time>2022-09-25T12:49:33Z</time>
      </trkpt>
      <trkpt lat="51.222622571513057" lon="4.620470479130745">
        <ele>274.11000000000001</ele>
        <time>2022-09-25T12:49:45Z</time>
      </trkpt>
      <trkpt lat="51.223042588680983" lon="4.620611881837249">
        <ele>274.11000000000001</ele>
        <time>2022-09-25T12:49:56Z</time>
      </trkpt>
      <trkpt lat="51.223440477624536" lon="4.620707351714373">
        <ele>274.11000000000001</ele>
        <time>2022-09-25T12:50:08Z</time>
      </trkpt>
      <trkpt lat="51.223663184791803" lon="4.620594866573811">
        <ele>274.11000000000001</ele>
        <time>2022-09-25T12:50:16Z</time>
      </trkpt>
      <trkpt lat="51.22394984588027" lon="4.620443154126406">
        <ele>274.11000000000001</ele>
        <time>2022-09-25T12:50:33Z</time>
      </trkpt>
      <trkpt lat="51.224197279661894" lon="4.620287753641605">
        <ele>274.11000000000001</ele>
        <time>2022-09-25T12:50:43Z</time>
      </trkpt>
      <trkpt lat="51.224197614938021" lon="4.620272917672992">
        <ele>274.11000000000001</ele>
        <time>2022-09-25T12:50:44Z</time>
      </trkpt>
      <trkpt lat="51.224191663786769" lon="4.620260009542108">
        <ele>274.11000000000001</ele>
        <time>2022-09-25T12:50:45Z</time>
      </trkpt>
      <trkpt lat="51.224048752337694" lon="4.619997069239616">
        <ele>274.11000000000001</ele>
        <time>2022-09-25T12:51:02Z</time>
      </trkpt>
      <trkpt lat="51.223864266648889" lon="4.619721304625273">
        <ele>274.11000000000001</ele>
        <time>2022-09-25T12:51:19Z</time>
      </trkpt>
      <trkpt lat="51.223670979961753" lon="4.619453921914101">
        <ele>274.11000000000001</ele>
        <time>2022-09-25T12:51:34Z</time>
      </trkpt>
      <trkpt lat="51.223456989973783" lon="4.619125435128808">
        <ele>274.11000000000001</ele>
        <time>2022-09-25T12:51:52Z</time>
      </trkpt>
      <trkpt lat="51.223248699679971" lon="4.618807090446353">
        <ele>274.11000000000001</ele>
        <time>2022-09-25T12:52:09Z</time>
      </trkpt>
      <trkpt lat="51.223077792674303" lon="4.6185387019068">
        <ele>274.11000000000001</ele>
        <time>2022-09-25T12:52:25Z</time>
      </trkpt>
      <trkpt lat="51.223056251183152" lon="4.618454715237021">
        <ele>274.11000000000001</ele>
        <time>2022-09-25T12:52:28Z</time>
      </trkpt>
      <trkpt lat="51.223054826259613" lon="4.618425462394953">
        <ele>274.11000000000001</ele>
        <time>2022-09-25T12:52:29Z</time>
      </trkpt>
      <trkpt lat="51.223055915907025" lon="4.618399394676089">
        <ele>274.11000000000001</ele>
        <time>2022-09-25T12:52:30Z</time>
      </trkpt>
      <trkpt lat="51.223059352487326" lon="4.61837793700397">
        <ele>274.11000000000001</ele>
        <time>2022-09-25T12:52:31Z</time>
      </trkpt>
      <trkpt lat="51.223063543438911" lon="4.618357820436359">
        <ele>274.11000000000001</ele>
        <time>2022-09-25T12:52:32Z</time>
      </trkpt>
      <trkpt lat="51.223089611157775" lon="4.618359496816993">
        <ele>274.11000000000001</ele>
        <time>2022-09-25T12:52:35Z</time>
      </trkpt>
      <trkpt lat="51.223096568137407" lon="4.618364693596959">
        <ele>274.11000000000001</ele>
        <time>2022-09-25T12:52:36Z</time>
      </trkpt>
      <trkpt lat="51.223218943923712" lon="4.618417331948876">
        <ele>274.11000000000001</ele>
        <time>2022-09-25T12:52:49Z</time>
      </trkpt>
      <trkpt lat="51.223275773227215" lon="4.618411548435688">
        <ele>274.11000000000001</ele>
        <time>2022-09-25T12:52:55Z</time>
      </trkpt>
      <trkpt lat="51.223674332723022" lon="4.618225554004312">
        <ele>274.11000000000001</ele>
        <time>2022-09-25T12:53:18Z</time>
      </trkpt>
      <trkpt lat="51.223743399605155" lon="4.618161767721176">
        <ele>274.11000000000001</ele>
        <time>2022-09-25T12:53:21Z</time>
      </trkpt>
      <trkpt lat="51.223768210038543" lon="4.61814584210515">
        <ele>274.11000000000001</ele>
        <time>2022-09-25T12:53:22Z</time>
      </trkpt>
      <trkpt lat="51.224174229428172" lon="4.617913328111172">
        <ele>274.11000000000001</ele>
        <time>2022-09-25T12:53:35Z</time>
      </trkpt>
      <trkpt lat="51.224357960745692" lon="4.61784727871418">
        <ele>274.11000000000001</ele>
        <time>2022-09-25T12:53:41Z</time>
      </trkpt>
      <trkpt lat="51.224388973787427" lon="4.617824144661427">
        <ele>274.11000000000001</ele>
        <time>2022-09-25T12:53:42Z</time>
      </trkpt>
      <trkpt lat="51.224413281306624" lon="4.617801429703832">
        <ele>274.11000000000001</ele>
        <time>2022-09-25T12:53:43Z</time>
      </trkpt>
      <trkpt lat="51.224438259378076" lon="4.617782402783632">
        <ele>274.11000000000001</ele>
        <time>2022-09-25T12:53:44Z</time>
      </trkpt>
      <trkpt lat="51.224480420351028" lon="4.617765722796321">
        <ele>274.11000000000001</ele>
        <time>2022-09-25T12:53:45Z</time>
      </trkpt>
      <trkpt lat="51.224509840831161" lon="4.61775784380734">
        <ele>274.11000000000001</ele>
        <time>2022-09-25T12:53:46Z</time>
      </trkpt>
      <trkpt lat="51.224809242412448" lon="4.61771878413856">
        <ele>274.11000000000001</ele>
        <time>2022-09-25T12:53:59Z</time>
      </trkpt>
      <trkpt lat="51.224922481924295" lon="4.617687352001667">
        <ele>274.11000000000001</ele>
        <time>2022-09-25T12:54:02Z</time>
      </trkpt>
      <trkpt lat="51.224950728937984" lon="4.617688022553921">
        <ele>274.11000000000001</ele>
        <time>2022-09-25T12:54:03Z</time>
      </trkpt>
      <trkpt lat="51.225273599848151" lon="4.617641670629382">
        <ele>274.11000000000001</ele>
        <time>2022-09-25T12:54:11Z</time>
      </trkpt>
      <trkpt lat="51.225654138252139" lon="4.6175492182374">
        <ele>274.11000000000001</ele>
        <time>2022-09-25T12:54:31Z</time>
      </trkpt>
      <trkpt lat="51.226164679974318" lon="4.617472523823381">
        <ele>274.11000000000001</ele>
        <time>2022-09-25T12:54:54Z</time>
      </trkpt>
      <trkpt lat="51.226258892565966" lon="4.617449557408691">
        <ele>274.11000000000001</ele>
        <time>2022-09-25T12:54:58Z</time>
      </trkpt>
      <trkpt lat="51.22655326500535" lon="4.617404295131564">
        <ele>274.11000000000001</ele>
        <time>2022-09-25T12:55:16Z</time>
      </trkpt>
      <trkpt lat="51.227002954110503" lon="4.617377640679479">
        <ele>274.11000000000001</ele>
        <time>2022-09-25T12:55:42Z</time>
      </trkpt>
      <trkpt lat="51.227319287136197" lon="4.617350231856108">
        <ele>274.11000000000001</ele>
        <time>2022-09-25T12:56:00Z</time>
      </trkpt>
      <trkpt lat="51.227592118084431" lon="4.617313938215375">
        <ele>274.11000000000001</ele>
        <time>2022-09-25T12:56:17Z</time>
      </trkpt>
      <trkpt lat="51.227888502180576" lon="4.617282589897513">
        <ele>274.11000000000001</ele>
        <time>2022-09-25T12:56:31Z</time>
      </trkpt>
      <trkpt lat="51.22812126763165" lon="4.617228945717216">
        <ele>274.11000000000001</ele>
        <time>2022-09-25T12:56:46Z</time>
      </trkpt>
      <trkpt lat="51.228379011154175" lon="4.617198519408703">
        <ele>274.11000000000001</ele>
        <time>2022-09-25T12:57:01Z</time>
      </trkpt>
      <trkpt lat="51.228554612025619" lon="4.617127357050777">
        <ele>274.11000000000001</ele>
        <time>2022-09-25T12:57:13Z</time>
      </trkpt>
      <trkpt lat="51.22860842384398" lon="4.617119142785668">
        <ele>274.11000000000001</ele>
        <time>2022-09-25T12:57:16Z</time>
      </trkpt>
      <trkpt lat="51.22862066142261" lon="4.617112604901195">
        <ele>274.11000000000001</ele>
        <time>2022-09-25T12:57:17Z</time>
      </trkpt>
      <trkpt lat="51.22934527695179" lon="4.616946307942271">
        <ele>274.11000000000001</ele>
        <time>2022-09-25T12:57:18Z</time>
      </trkpt>
      <trkpt lat="51.229555495083332" lon="4.616301907226443">
        <ele>274.11000000000001</ele>
        <time>2022-09-25T12:57:33Z</time>
      </trkpt>
    </trkseg>
  </trk>

</gpx>